<?xml version="1.0" encoding="UTF-8" standalone="no" ?>
<gpx xmlns="http://www.topografix.com/GPX/1/1" xmlns:xsi="http://www.w3.org/2001/XMLSchema-instance" xsi:schemaLocation="http://www.topografix.com/GPX/1/1 http://www.topografix.com/GPX/1/1/gpx.xsd" version="1.1" creator="VisuGPX - https://www.visugpx.com">
  <metadata>
    <name>83-L-La Mourre-2025-11-03</name>
    <desc><![CDATA[83-L-La Mourre-2025-11-03 : Les Cabrettes, Camp Long]]></desc>
  </metadata>
  <trk>
    <name><![CDATA[2025-11-03-02 on AllTrails]]></name>
    <trkseg>
      <trkpt lat="43.34351" lon="6.49136">
        <ele>336</ele>
        <time>2025-11-03T08:20:32Z</time>
      </trkpt>
      <trkpt lat="43.34351" lon="6.49137">
        <ele>336</ele>
        <time>2025-11-03T08:20:36Z</time>
      </trkpt>
      <trkpt lat="43.34342" lon="6.49132">
        <ele>335</ele>
        <time>2025-11-03T08:22:40Z</time>
      </trkpt>
      <trkpt lat="43.34333" lon="6.49132">
        <ele>334</ele>
        <time>2025-11-03T08:22:53Z</time>
      </trkpt>
      <trkpt lat="43.34324" lon="6.49133">
        <ele>334</ele>
        <time>2025-11-03T08:23:04Z</time>
      </trkpt>
      <trkpt lat="43.34314" lon="6.49135">
        <ele>334</ele>
        <time>2025-11-03T08:23:14Z</time>
      </trkpt>
      <trkpt lat="43.34305" lon="6.49139">
        <ele>334</ele>
        <time>2025-11-03T08:23:25Z</time>
      </trkpt>
      <trkpt lat="43.34297" lon="6.49144">
        <ele>334</ele>
        <time>2025-11-03T08:23:36Z</time>
      </trkpt>
      <trkpt lat="43.34287" lon="6.49148">
        <ele>333</ele>
        <time>2025-11-03T08:23:47Z</time>
      </trkpt>
      <trkpt lat="43.34278" lon="6.49147">
        <ele>333</ele>
        <time>2025-11-03T08:23:58Z</time>
      </trkpt>
      <trkpt lat="43.34269" lon="6.49149">
        <ele>333</ele>
        <time>2025-11-03T08:24:10Z</time>
      </trkpt>
      <trkpt lat="43.34277" lon="6.49147">
        <ele>333</ele>
        <time>2025-11-03T08:24:37Z</time>
      </trkpt>
      <trkpt lat="43.34287" lon="6.49143">
        <ele>334</ele>
        <time>2025-11-03T08:25:18Z</time>
      </trkpt>
      <trkpt lat="43.34279" lon="6.49149">
        <ele>333</ele>
        <time>2025-11-03T08:25:41Z</time>
      </trkpt>
      <trkpt lat="43.34269" lon="6.49152">
        <ele>333</ele>
        <time>2025-11-03T08:25:49Z</time>
      </trkpt>
      <trkpt lat="43.3426" lon="6.49153">
        <ele>332</ele>
        <time>2025-11-03T08:25:59Z</time>
      </trkpt>
      <trkpt lat="43.34251" lon="6.49149">
        <ele>332</ele>
        <time>2025-11-03T08:26:07Z</time>
      </trkpt>
      <trkpt lat="43.34242" lon="6.49154">
        <ele>331</ele>
        <time>2025-11-03T08:26:17Z</time>
      </trkpt>
      <trkpt lat="43.34242" lon="6.49167">
        <ele>331</ele>
        <time>2025-11-03T08:26:48Z</time>
      </trkpt>
      <trkpt lat="43.34242" lon="6.4918">
        <ele>330</ele>
        <time>2025-11-03T08:26:56Z</time>
      </trkpt>
      <trkpt lat="43.34245" lon="6.49196">
        <ele>329</ele>
        <time>2025-11-03T08:27:28Z</time>
      </trkpt>
      <trkpt lat="43.34253" lon="6.49203">
        <ele>328</ele>
        <time>2025-11-03T08:27:31Z</time>
      </trkpt>
      <trkpt lat="43.34251" lon="6.4919">
        <ele>330</ele>
        <time>2025-11-03T08:27:44Z</time>
      </trkpt>
      <trkpt lat="43.34254" lon="6.49175">
        <ele>332</ele>
        <time>2025-11-03T08:27:57Z</time>
      </trkpt>
      <trkpt lat="43.34251" lon="6.49161">
        <ele>332</ele>
        <time>2025-11-03T08:28:01Z</time>
      </trkpt>
      <trkpt lat="43.34243" lon="6.49168">
        <ele>331</ele>
        <time>2025-11-03T08:28:31Z</time>
      </trkpt>
      <trkpt lat="43.3425" lon="6.49179">
        <ele>331</ele>
        <time>2025-11-03T08:28:43Z</time>
      </trkpt>
      <trkpt lat="43.34247" lon="6.4919">
        <ele>330</ele>
        <time>2025-11-03T08:28:56Z</time>
      </trkpt>
      <trkpt lat="43.34238" lon="6.49192">
        <ele>328</ele>
        <time>2025-11-03T08:29:37Z</time>
      </trkpt>
      <trkpt lat="43.34231" lon="6.49201">
        <ele>327</ele>
        <time>2025-11-03T08:30:09Z</time>
      </trkpt>
      <trkpt lat="43.34241" lon="6.49189">
        <ele>329</ele>
        <time>2025-11-03T08:30:29Z</time>
      </trkpt>
      <trkpt lat="43.34249" lon="6.49179">
        <ele>331</ele>
        <time>2025-11-03T08:30:33Z</time>
      </trkpt>
      <trkpt lat="43.34255" lon="6.49169">
        <ele>332</ele>
        <time>2025-11-03T08:30:45Z</time>
      </trkpt>
      <trkpt lat="43.34264" lon="6.49157">
        <ele>333</ele>
        <time>2025-11-03T08:31:23Z</time>
      </trkpt>
      <trkpt lat="43.34259" lon="6.49171">
        <ele>332</ele>
        <time>2025-11-03T08:31:29Z</time>
      </trkpt>
      <trkpt lat="43.34254" lon="6.49182">
        <ele>331</ele>
        <time>2025-11-03T08:31:48Z</time>
      </trkpt>
      <trkpt lat="43.34244" lon="6.49181">
        <ele>330</ele>
        <time>2025-11-03T08:32:14Z</time>
      </trkpt>
      <trkpt lat="43.34234" lon="6.49178">
        <ele>329</ele>
        <time>2025-11-03T08:32:24Z</time>
      </trkpt>
      <trkpt lat="43.34244" lon="6.49184">
        <ele>330</ele>
        <time>2025-11-03T08:32:39Z</time>
      </trkpt>
      <trkpt lat="43.34237" lon="6.49196">
        <ele>328</ele>
        <time>2025-11-03T08:33:02Z</time>
      </trkpt>
      <trkpt lat="43.34235" lon="6.49183">
        <ele>329</ele>
        <time>2025-11-03T08:34:16Z</time>
      </trkpt>
      <trkpt lat="43.34238" lon="6.49172">
        <ele>330</ele>
        <time>2025-11-03T08:34:32Z</time>
      </trkpt>
      <trkpt lat="43.34241" lon="6.49159">
        <ele>331</ele>
        <time>2025-11-03T08:34:52Z</time>
      </trkpt>
      <trkpt lat="43.34248" lon="6.49151">
        <ele>332</ele>
        <time>2025-11-03T08:35:00Z</time>
      </trkpt>
      <trkpt lat="43.34258" lon="6.49151">
        <ele>332</ele>
        <time>2025-11-03T08:35:06Z</time>
      </trkpt>
      <trkpt lat="43.34268" lon="6.49152">
        <ele>333</ele>
        <time>2025-11-03T08:35:14Z</time>
      </trkpt>
      <trkpt lat="43.34278" lon="6.49149">
        <ele>333</ele>
        <time>2025-11-03T08:35:22Z</time>
      </trkpt>
      <trkpt lat="43.34287" lon="6.49144">
        <ele>334</ele>
        <time>2025-11-03T08:35:29Z</time>
      </trkpt>
      <trkpt lat="43.34295" lon="6.49139">
        <ele>334</ele>
        <time>2025-11-03T08:37:13Z</time>
      </trkpt>
      <trkpt lat="43.34286" lon="6.49143">
        <ele>334</ele>
        <time>2025-11-03T08:37:27Z</time>
      </trkpt>
      <trkpt lat="43.34277" lon="6.49148">
        <ele>333</ele>
        <time>2025-11-03T08:37:33Z</time>
      </trkpt>
      <trkpt lat="43.34267" lon="6.4915">
        <ele>333</ele>
        <time>2025-11-03T08:37:40Z</time>
      </trkpt>
      <trkpt lat="43.34256" lon="6.49147">
        <ele>332</ele>
        <time>2025-11-03T08:37:46Z</time>
      </trkpt>
      <trkpt lat="43.34248" lon="6.49153">
        <ele>332</ele>
        <time>2025-11-03T08:37:52Z</time>
      </trkpt>
      <trkpt lat="43.34242" lon="6.49163">
        <ele>331</ele>
        <time>2025-11-03T08:37:57Z</time>
      </trkpt>
      <trkpt lat="43.34236" lon="6.49174">
        <ele>330</ele>
        <time>2025-11-03T08:38:02Z</time>
      </trkpt>
      <trkpt lat="43.3423" lon="6.49184">
        <ele>328</ele>
        <time>2025-11-03T08:38:07Z</time>
      </trkpt>
      <trkpt lat="43.34227" lon="6.49196">
        <ele>327</ele>
        <time>2025-11-03T08:38:13Z</time>
      </trkpt>
      <trkpt lat="43.34228" lon="6.49209">
        <ele>326</ele>
        <time>2025-11-03T08:38:19Z</time>
      </trkpt>
      <trkpt lat="43.34222" lon="6.49221">
        <ele>325</ele>
        <time>2025-11-03T08:38:27Z</time>
      </trkpt>
      <trkpt lat="43.34221" lon="6.49235">
        <ele>323</ele>
        <time>2025-11-03T08:38:36Z</time>
      </trkpt>
      <trkpt lat="43.34221" lon="6.49247">
        <ele>323</ele>
        <time>2025-11-03T08:38:56Z</time>
      </trkpt>
      <trkpt lat="43.34219" lon="6.4926">
        <ele>323</ele>
        <time>2025-11-03T08:39:16Z</time>
      </trkpt>
      <trkpt lat="43.3422" lon="6.49273">
        <ele>323</ele>
        <time>2025-11-03T08:40:29Z</time>
      </trkpt>
      <trkpt lat="43.34228" lon="6.49279">
        <ele>323</ele>
        <time>2025-11-03T08:40:53Z</time>
      </trkpt>
      <trkpt lat="43.34235" lon="6.49286">
        <ele>323</ele>
        <time>2025-11-03T08:41:03Z</time>
      </trkpt>
      <trkpt lat="43.34243" lon="6.49295">
        <ele>324</ele>
        <time>2025-11-03T08:41:15Z</time>
      </trkpt>
      <trkpt lat="43.34252" lon="6.49299">
        <ele>323</ele>
        <time>2025-11-03T08:41:31Z</time>
      </trkpt>
      <trkpt lat="43.34262" lon="6.493">
        <ele>321</ele>
        <time>2025-11-03T08:41:46Z</time>
      </trkpt>
      <trkpt lat="43.34269" lon="6.49309">
        <ele>320</ele>
        <time>2025-11-03T08:42:14Z</time>
      </trkpt>
      <trkpt lat="43.34274" lon="6.49299">
        <ele>318</ele>
        <time>2025-11-03T08:42:28Z</time>
      </trkpt>
      <trkpt lat="43.34268" lon="6.49288">
        <ele>319</ele>
        <time>2025-11-03T08:42:39Z</time>
      </trkpt>
      <trkpt lat="43.34266" lon="6.49276">
        <ele>319</ele>
        <time>2025-11-03T08:42:55Z</time>
      </trkpt>
      <trkpt lat="43.34272" lon="6.49266">
        <ele>318</ele>
        <time>2025-11-03T08:43:10Z</time>
      </trkpt>
      <trkpt lat="43.34281" lon="6.49262">
        <ele>317</ele>
        <time>2025-11-03T08:43:19Z</time>
      </trkpt>
      <trkpt lat="43.3429" lon="6.49257">
        <ele>316</ele>
        <time>2025-11-03T08:43:28Z</time>
      </trkpt>
      <trkpt lat="43.34299" lon="6.49253">
        <ele>316</ele>
        <time>2025-11-03T08:43:40Z</time>
      </trkpt>
      <trkpt lat="43.34308" lon="6.49257">
        <ele>315</ele>
        <time>2025-11-03T08:43:49Z</time>
      </trkpt>
      <trkpt lat="43.34317" lon="6.49258">
        <ele>314</ele>
        <time>2025-11-03T08:43:59Z</time>
      </trkpt>
      <trkpt lat="43.34326" lon="6.49261">
        <ele>313</ele>
        <time>2025-11-03T08:44:12Z</time>
      </trkpt>
      <trkpt lat="43.34332" lon="6.4927">
        <ele>310</ele>
        <time>2025-11-03T08:44:34Z</time>
      </trkpt>
      <trkpt lat="43.34343" lon="6.49273">
        <ele>309</ele>
        <time>2025-11-03T08:44:50Z</time>
      </trkpt>
      <trkpt lat="43.34353" lon="6.49274">
        <ele>308</ele>
        <time>2025-11-03T08:45:00Z</time>
      </trkpt>
      <trkpt lat="43.34361" lon="6.4927">
        <ele>309</ele>
        <time>2025-11-03T08:45:09Z</time>
      </trkpt>
      <trkpt lat="43.34371" lon="6.49267">
        <ele>310</ele>
        <time>2025-11-03T08:45:19Z</time>
      </trkpt>
      <trkpt lat="43.34381" lon="6.49272">
        <ele>309</ele>
        <time>2025-11-03T08:45:29Z</time>
      </trkpt>
      <trkpt lat="43.34387" lon="6.49283">
        <ele>306</ele>
        <time>2025-11-03T08:45:39Z</time>
      </trkpt>
      <trkpt lat="43.34393" lon="6.49294">
        <ele>302</ele>
        <time>2025-11-03T08:45:48Z</time>
      </trkpt>
      <trkpt lat="43.344" lon="6.49304">
        <ele>299</ele>
        <time>2025-11-03T08:45:57Z</time>
      </trkpt>
      <trkpt lat="43.34408" lon="6.4931">
        <ele>297</ele>
        <time>2025-11-03T08:46:05Z</time>
      </trkpt>
      <trkpt lat="43.34417" lon="6.49312">
        <ele>296</ele>
        <time>2025-11-03T08:46:14Z</time>
      </trkpt>
      <trkpt lat="43.34427" lon="6.49314">
        <ele>296</ele>
        <time>2025-11-03T08:46:23Z</time>
      </trkpt>
      <trkpt lat="43.34435" lon="6.49319">
        <ele>295</ele>
        <time>2025-11-03T08:46:33Z</time>
      </trkpt>
      <trkpt lat="43.34444" lon="6.4932">
        <ele>295</ele>
        <time>2025-11-03T08:46:42Z</time>
      </trkpt>
      <trkpt lat="43.34454" lon="6.4932">
        <ele>295</ele>
        <time>2025-11-03T08:46:52Z</time>
      </trkpt>
      <trkpt lat="43.34463" lon="6.49319">
        <ele>295</ele>
        <time>2025-11-03T08:47:03Z</time>
      </trkpt>
      <trkpt lat="43.34472" lon="6.4932">
        <ele>295</ele>
        <time>2025-11-03T08:47:15Z</time>
      </trkpt>
      <trkpt lat="43.34481" lon="6.49322">
        <ele>294</ele>
        <time>2025-11-03T08:47:27Z</time>
      </trkpt>
      <trkpt lat="43.34491" lon="6.49323">
        <ele>293</ele>
        <time>2025-11-03T08:47:39Z</time>
      </trkpt>
      <trkpt lat="43.345" lon="6.49321">
        <ele>293</ele>
        <time>2025-11-03T08:47:51Z</time>
      </trkpt>
      <trkpt lat="43.3451" lon="6.49323">
        <ele>291</ele>
        <time>2025-11-03T08:47:59Z</time>
      </trkpt>
      <trkpt lat="43.34519" lon="6.49319">
        <ele>291</ele>
        <time>2025-11-03T08:48:08Z</time>
      </trkpt>
      <trkpt lat="43.34528" lon="6.49314">
        <ele>291</ele>
        <time>2025-11-03T08:48:23Z</time>
      </trkpt>
      <trkpt lat="43.34536" lon="6.49308">
        <ele>291</ele>
        <time>2025-11-03T08:48:33Z</time>
      </trkpt>
      <trkpt lat="43.34544" lon="6.493">
        <ele>292</ele>
        <time>2025-11-03T08:48:42Z</time>
      </trkpt>
      <trkpt lat="43.34553" lon="6.49294">
        <ele>292</ele>
        <time>2025-11-03T08:48:52Z</time>
      </trkpt>
      <trkpt lat="43.34559" lon="6.49284">
        <ele>294</ele>
        <time>2025-11-03T08:49:07Z</time>
      </trkpt>
      <trkpt lat="43.34568" lon="6.49279">
        <ele>294</ele>
        <time>2025-11-03T08:49:19Z</time>
      </trkpt>
      <trkpt lat="43.34578" lon="6.49281">
        <ele>292</ele>
        <time>2025-11-03T08:49:32Z</time>
      </trkpt>
      <trkpt lat="43.34586" lon="6.49286">
        <ele>289</ele>
        <time>2025-11-03T08:49:49Z</time>
      </trkpt>
      <trkpt lat="43.34589" lon="6.49298">
        <ele>285</ele>
        <time>2025-11-03T08:50:14Z</time>
      </trkpt>
      <trkpt lat="43.34599" lon="6.49302">
        <ele>283</ele>
        <time>2025-11-03T08:50:49Z</time>
      </trkpt>
      <trkpt lat="43.34608" lon="6.49303">
        <ele>282</ele>
        <time>2025-11-03T08:50:58Z</time>
      </trkpt>
      <trkpt lat="43.34618" lon="6.49301">
        <ele>282</ele>
        <time>2025-11-03T08:51:08Z</time>
      </trkpt>
      <trkpt lat="43.34626" lon="6.49296">
        <ele>282</ele>
        <time>2025-11-03T08:51:22Z</time>
      </trkpt>
      <trkpt lat="43.34634" lon="6.4929">
        <ele>282</ele>
        <time>2025-11-03T08:51:32Z</time>
      </trkpt>
      <trkpt lat="43.3464" lon="6.4928">
        <ele>283</ele>
        <time>2025-11-03T08:51:46Z</time>
      </trkpt>
      <trkpt lat="43.34646" lon="6.49269">
        <ele>284</ele>
        <time>2025-11-03T08:51:58Z</time>
      </trkpt>
      <trkpt lat="43.34652" lon="6.49258">
        <ele>286</ele>
        <time>2025-11-03T08:52:08Z</time>
      </trkpt>
      <trkpt lat="43.34659" lon="6.4925">
        <ele>287</ele>
        <time>2025-11-03T08:52:19Z</time>
      </trkpt>
      <trkpt lat="43.34667" lon="6.49243">
        <ele>287</ele>
        <time>2025-11-03T08:52:29Z</time>
      </trkpt>
      <trkpt lat="43.34676" lon="6.49247">
        <ele>286</ele>
        <time>2025-11-03T08:52:45Z</time>
      </trkpt>
      <trkpt lat="43.34682" lon="6.49258">
        <ele>281</ele>
        <time>2025-11-03T08:53:11Z</time>
      </trkpt>
      <trkpt lat="43.3469" lon="6.49267">
        <ele>278</ele>
        <time>2025-11-03T08:54:38Z</time>
      </trkpt>
      <trkpt lat="43.34697" lon="6.49277">
        <ele>274</ele>
        <time>2025-11-03T08:54:48Z</time>
      </trkpt>
      <trkpt lat="43.34705" lon="6.49281">
        <ele>274</ele>
        <time>2025-11-03T08:54:55Z</time>
      </trkpt>
      <trkpt lat="43.34713" lon="6.49288">
        <ele>273</ele>
        <time>2025-11-03T08:55:04Z</time>
      </trkpt>
      <trkpt lat="43.34722" lon="6.49288">
        <ele>274</ele>
        <time>2025-11-03T08:55:11Z</time>
      </trkpt>
      <trkpt lat="43.34731" lon="6.49293">
        <ele>274</ele>
        <time>2025-11-03T08:55:19Z</time>
      </trkpt>
      <trkpt lat="43.3474" lon="6.49298">
        <ele>274</ele>
        <time>2025-11-03T08:55:28Z</time>
      </trkpt>
      <trkpt lat="43.34748" lon="6.49303">
        <ele>273</ele>
        <time>2025-11-03T08:55:37Z</time>
      </trkpt>
      <trkpt lat="43.34758" lon="6.49308">
        <ele>272</ele>
        <time>2025-11-03T08:55:47Z</time>
      </trkpt>
      <trkpt lat="43.34766" lon="6.49312">
        <ele>271</ele>
        <time>2025-11-03T08:55:55Z</time>
      </trkpt>
      <trkpt lat="43.34776" lon="6.49314">
        <ele>270</ele>
        <time>2025-11-03T08:56:05Z</time>
      </trkpt>
      <trkpt lat="43.34785" lon="6.49313">
        <ele>270</ele>
        <time>2025-11-03T08:56:15Z</time>
      </trkpt>
      <trkpt lat="43.34794" lon="6.49311">
        <ele>270</ele>
        <time>2025-11-03T08:56:25Z</time>
      </trkpt>
      <trkpt lat="43.34804" lon="6.49308">
        <ele>271</ele>
        <time>2025-11-03T08:56:36Z</time>
      </trkpt>
      <trkpt lat="43.34813" lon="6.49303">
        <ele>271</ele>
        <time>2025-11-03T08:56:48Z</time>
      </trkpt>
      <trkpt lat="43.34822" lon="6.493">
        <ele>271</ele>
        <time>2025-11-03T08:56:57Z</time>
      </trkpt>
      <trkpt lat="43.34832" lon="6.49298">
        <ele>271</ele>
        <time>2025-11-03T08:57:06Z</time>
      </trkpt>
      <trkpt lat="43.34838" lon="6.49307">
        <ele>269</ele>
        <time>2025-11-03T08:57:19Z</time>
      </trkpt>
      <trkpt lat="43.34844" lon="6.49317">
        <ele>267</ele>
        <time>2025-11-03T08:57:29Z</time>
      </trkpt>
      <trkpt lat="43.34852" lon="6.49325">
        <ele>266</ele>
        <time>2025-11-03T08:57:38Z</time>
      </trkpt>
      <trkpt lat="43.34858" lon="6.49335">
        <ele>264</ele>
        <time>2025-11-03T08:57:48Z</time>
      </trkpt>
      <trkpt lat="43.34865" lon="6.49345">
        <ele>262</ele>
        <time>2025-11-03T08:57:59Z</time>
      </trkpt>
      <trkpt lat="43.34871" lon="6.49355">
        <ele>260</ele>
        <time>2025-11-03T08:58:12Z</time>
      </trkpt>
      <trkpt lat="43.34879" lon="6.49361">
        <ele>259</ele>
        <time>2025-11-03T08:58:24Z</time>
      </trkpt>
      <trkpt lat="43.34888" lon="6.49365">
        <ele>259</ele>
        <time>2025-11-03T08:59:16Z</time>
      </trkpt>
      <trkpt lat="43.34897" lon="6.49362">
        <ele>259</ele>
        <time>2025-11-03T08:59:33Z</time>
      </trkpt>
      <trkpt lat="43.34906" lon="6.49363">
        <ele>259</ele>
        <time>2025-11-03T08:59:46Z</time>
      </trkpt>
      <trkpt lat="43.34915" lon="6.49358">
        <ele>260</ele>
        <time>2025-11-03T08:59:58Z</time>
      </trkpt>
      <trkpt lat="43.34924" lon="6.49356">
        <ele>260</ele>
        <time>2025-11-03T09:00:09Z</time>
      </trkpt>
      <trkpt lat="43.34933" lon="6.49352">
        <ele>261</ele>
        <time>2025-11-03T09:00:20Z</time>
      </trkpt>
      <trkpt lat="43.34941" lon="6.49357">
        <ele>260</ele>
        <time>2025-11-03T09:00:33Z</time>
      </trkpt>
      <trkpt lat="43.34948" lon="6.49368">
        <ele>259</ele>
        <time>2025-11-03T09:00:43Z</time>
      </trkpt>
      <trkpt lat="43.34954" lon="6.49378">
        <ele>258</ele>
        <time>2025-11-03T09:00:52Z</time>
      </trkpt>
      <trkpt lat="43.34958" lon="6.4939">
        <ele>256</ele>
        <time>2025-11-03T09:01:03Z</time>
      </trkpt>
      <trkpt lat="43.34965" lon="6.49397">
        <ele>255</ele>
        <time>2025-11-03T09:01:13Z</time>
      </trkpt>
      <trkpt lat="43.34972" lon="6.49405">
        <ele>253</ele>
        <time>2025-11-03T09:01:25Z</time>
      </trkpt>
      <trkpt lat="43.34973" lon="6.49418">
        <ele>250</ele>
        <time>2025-11-03T09:01:36Z</time>
      </trkpt>
      <trkpt lat="43.34963" lon="6.49417">
        <ele>249</ele>
        <time>2025-11-03T09:01:54Z</time>
      </trkpt>
      <trkpt lat="43.34956" lon="6.49409">
        <ele>251</ele>
        <time>2025-11-03T09:02:03Z</time>
      </trkpt>
      <trkpt lat="43.34949" lon="6.494">
        <ele>252</ele>
        <time>2025-11-03T09:02:12Z</time>
      </trkpt>
      <trkpt lat="43.34941" lon="6.49392">
        <ele>253</ele>
        <time>2025-11-03T09:02:21Z</time>
      </trkpt>
      <trkpt lat="43.34932" lon="6.49391">
        <ele>253</ele>
        <time>2025-11-03T09:02:32Z</time>
      </trkpt>
      <trkpt lat="43.34926" lon="6.49401">
        <ele>251</ele>
        <time>2025-11-03T09:02:47Z</time>
      </trkpt>
      <trkpt lat="43.34921" lon="6.49413">
        <ele>248</ele>
        <time>2025-11-03T09:03:02Z</time>
      </trkpt>
      <trkpt lat="43.34924" lon="6.49424">
        <ele>245</ele>
        <time>2025-11-03T09:03:16Z</time>
      </trkpt>
      <trkpt lat="43.34933" lon="6.49431">
        <ele>244</ele>
        <time>2025-11-03T09:03:27Z</time>
      </trkpt>
      <trkpt lat="43.34939" lon="6.49441">
        <ele>242</ele>
        <time>2025-11-03T09:03:37Z</time>
      </trkpt>
      <trkpt lat="43.34946" lon="6.49451">
        <ele>240</ele>
        <time>2025-11-03T09:03:47Z</time>
      </trkpt>
      <trkpt lat="43.34953" lon="6.4946">
        <ele>240</ele>
        <time>2025-11-03T09:03:56Z</time>
      </trkpt>
      <trkpt lat="43.34961" lon="6.49466">
        <ele>239</ele>
        <time>2025-11-03T09:04:06Z</time>
      </trkpt>
      <trkpt lat="43.3497" lon="6.49472">
        <ele>239</ele>
        <time>2025-11-03T09:04:17Z</time>
      </trkpt>
      <trkpt lat="43.34979" lon="6.49478">
        <ele>239</ele>
        <time>2025-11-03T09:04:29Z</time>
      </trkpt>
      <trkpt lat="43.34987" lon="6.49483">
        <ele>239</ele>
        <time>2025-11-03T09:04:38Z</time>
      </trkpt>
      <trkpt lat="43.34996" lon="6.49484">
        <ele>239</ele>
        <time>2025-11-03T09:04:48Z</time>
      </trkpt>
      <trkpt lat="43.35006" lon="6.49485">
        <ele>239</ele>
        <time>2025-11-03T09:04:58Z</time>
      </trkpt>
      <trkpt lat="43.35015" lon="6.49484">
        <ele>239</ele>
        <time>2025-11-03T09:05:09Z</time>
      </trkpt>
      <trkpt lat="43.35023" lon="6.49477">
        <ele>240</ele>
        <time>2025-11-03T09:05:21Z</time>
      </trkpt>
      <trkpt lat="43.35025" lon="6.49465">
        <ele>241</ele>
        <time>2025-11-03T09:05:33Z</time>
      </trkpt>
      <trkpt lat="43.35029" lon="6.49453">
        <ele>242</ele>
        <time>2025-11-03T09:05:42Z</time>
      </trkpt>
      <trkpt lat="43.35034" lon="6.49441">
        <ele>243</ele>
        <time>2025-11-03T09:05:52Z</time>
      </trkpt>
      <trkpt lat="43.35042" lon="6.49434">
        <ele>241</ele>
        <time>2025-11-03T09:06:04Z</time>
      </trkpt>
      <trkpt lat="43.3505" lon="6.49427">
        <ele>241</ele>
        <time>2025-11-03T09:06:15Z</time>
      </trkpt>
      <trkpt lat="43.3506" lon="6.49422">
        <ele>238</ele>
        <time>2025-11-03T09:06:25Z</time>
      </trkpt>
      <trkpt lat="43.35067" lon="6.49415">
        <ele>237</ele>
        <time>2025-11-03T09:06:33Z</time>
      </trkpt>
      <trkpt lat="43.35073" lon="6.49405">
        <ele>236</ele>
        <time>2025-11-03T09:06:44Z</time>
      </trkpt>
      <trkpt lat="43.35079" lon="6.49394">
        <ele>235</ele>
        <time>2025-11-03T09:06:55Z</time>
      </trkpt>
      <trkpt lat="43.35084" lon="6.49383">
        <ele>234</ele>
        <time>2025-11-03T09:07:06Z</time>
      </trkpt>
      <trkpt lat="43.35087" lon="6.49371">
        <ele>235</ele>
        <time>2025-11-03T09:07:20Z</time>
      </trkpt>
      <trkpt lat="43.35093" lon="6.4936">
        <ele>234</ele>
        <time>2025-11-03T09:07:30Z</time>
      </trkpt>
      <trkpt lat="43.35097" lon="6.49349">
        <ele>234</ele>
        <time>2025-11-03T09:07:39Z</time>
      </trkpt>
      <trkpt lat="43.35101" lon="6.49337">
        <ele>235</ele>
        <time>2025-11-03T09:07:49Z</time>
      </trkpt>
      <trkpt lat="43.35107" lon="6.49327">
        <ele>235</ele>
        <time>2025-11-03T09:08:01Z</time>
      </trkpt>
      <trkpt lat="43.35117" lon="6.49326">
        <ele>233</ele>
        <time>2025-11-03T09:08:10Z</time>
      </trkpt>
      <trkpt lat="43.35126" lon="6.49324">
        <ele>231</ele>
        <time>2025-11-03T09:08:23Z</time>
      </trkpt>
      <trkpt lat="43.35134" lon="6.49317">
        <ele>232</ele>
        <time>2025-11-03T09:08:33Z</time>
      </trkpt>
      <trkpt lat="43.35141" lon="6.49309">
        <ele>233</ele>
        <time>2025-11-03T09:08:42Z</time>
      </trkpt>
      <trkpt lat="43.3515" lon="6.49306">
        <ele>233</ele>
        <time>2025-11-03T09:08:53Z</time>
      </trkpt>
      <trkpt lat="43.35158" lon="6.49312">
        <ele>231</ele>
        <time>2025-11-03T09:09:05Z</time>
      </trkpt>
      <trkpt lat="43.35166" lon="6.49319">
        <ele>229</ele>
        <time>2025-11-03T09:09:15Z</time>
      </trkpt>
      <trkpt lat="43.35175" lon="6.49322">
        <ele>228</ele>
        <time>2025-11-03T09:09:24Z</time>
      </trkpt>
      <trkpt lat="43.35168" lon="6.4933">
        <ele>225</ele>
        <time>2025-11-03T09:10:17Z</time>
      </trkpt>
      <trkpt lat="43.35177" lon="6.49329">
        <ele>225</ele>
        <time>2025-11-03T09:11:39Z</time>
      </trkpt>
      <trkpt lat="43.35186" lon="6.49332">
        <ele>224</ele>
        <time>2025-11-03T09:11:56Z</time>
      </trkpt>
      <trkpt lat="43.35195" lon="6.49337">
        <ele>222</ele>
        <time>2025-11-03T09:12:57Z</time>
      </trkpt>
      <trkpt lat="43.35187" lon="6.49341">
        <ele>221</ele>
        <time>2025-11-03T09:13:29Z</time>
      </trkpt>
      <trkpt lat="43.35196" lon="6.49341">
        <ele>221</ele>
        <time>2025-11-03T09:14:15Z</time>
      </trkpt>
      <trkpt lat="43.35205" lon="6.49343">
        <ele>221</ele>
        <time>2025-11-03T09:14:26Z</time>
      </trkpt>
      <trkpt lat="43.35215" lon="6.49345">
        <ele>221</ele>
        <time>2025-11-03T09:14:34Z</time>
      </trkpt>
      <trkpt lat="43.35223" lon="6.49351">
        <ele>220</ele>
        <time>2025-11-03T09:14:42Z</time>
      </trkpt>
      <trkpt lat="43.35232" lon="6.49355">
        <ele>219</ele>
        <time>2025-11-03T09:14:51Z</time>
      </trkpt>
      <trkpt lat="43.35241" lon="6.49362">
        <ele>216</ele>
        <time>2025-11-03T09:15:02Z</time>
      </trkpt>
      <trkpt lat="43.35251" lon="6.49369">
        <ele>214</ele>
        <time>2025-11-03T09:15:14Z</time>
      </trkpt>
      <trkpt lat="43.35258" lon="6.49377">
        <ele>210</ele>
        <time>2025-11-03T09:15:22Z</time>
      </trkpt>
      <trkpt lat="43.35267" lon="6.49382">
        <ele>208</ele>
        <time>2025-11-03T09:15:30Z</time>
      </trkpt>
      <trkpt lat="43.35276" lon="6.49387">
        <ele>207</ele>
        <time>2025-11-03T09:15:41Z</time>
      </trkpt>
      <trkpt lat="43.35283" lon="6.49395">
        <ele>205</ele>
        <time>2025-11-03T09:15:59Z</time>
      </trkpt>
      <trkpt lat="43.35283" lon="6.49382">
        <ele>207</ele>
        <time>2025-11-03T09:17:13Z</time>
      </trkpt>
      <trkpt lat="43.35288" lon="6.49372">
        <ele>209</ele>
        <time>2025-11-03T09:17:31Z</time>
      </trkpt>
      <trkpt lat="43.3529" lon="6.49359">
        <ele>211</ele>
        <time>2025-11-03T09:17:42Z</time>
      </trkpt>
      <trkpt lat="43.35296" lon="6.49348">
        <ele>214</ele>
        <time>2025-11-03T09:17:58Z</time>
      </trkpt>
      <trkpt lat="43.35304" lon="6.49342">
        <ele>214</ele>
        <time>2025-11-03T09:18:09Z</time>
      </trkpt>
      <trkpt lat="43.35315" lon="6.49335">
        <ele>214</ele>
        <time>2025-11-03T09:18:26Z</time>
      </trkpt>
      <trkpt lat="43.35324" lon="6.49336">
        <ele>212</ele>
        <time>2025-11-03T09:18:58Z</time>
      </trkpt>
      <trkpt lat="43.35333" lon="6.49332">
        <ele>211</ele>
        <time>2025-11-03T09:19:12Z</time>
      </trkpt>
      <trkpt lat="43.35326" lon="6.49324">
        <ele>215</ele>
        <time>2025-11-03T09:19:41Z</time>
      </trkpt>
      <trkpt lat="43.3532" lon="6.49314">
        <ele>219</ele>
        <time>2025-11-03T09:20:21Z</time>
      </trkpt>
      <trkpt lat="43.35328" lon="6.49306">
        <ele>220</ele>
        <time>2025-11-03T09:20:57Z</time>
      </trkpt>
      <trkpt lat="43.35324" lon="6.49317">
        <ele>217</ele>
        <time>2025-11-03T09:21:23Z</time>
      </trkpt>
      <trkpt lat="43.35324" lon="6.4933">
        <ele>214</ele>
        <time>2025-11-03T09:21:41Z</time>
      </trkpt>
      <trkpt lat="43.35318" lon="6.49339">
        <ele>212</ele>
        <time>2025-11-03T09:21:58Z</time>
      </trkpt>
      <trkpt lat="43.35327" lon="6.49337">
        <ele>211</ele>
        <time>2025-11-03T09:22:11Z</time>
      </trkpt>
      <trkpt lat="43.35335" lon="6.4933">
        <ele>211</ele>
        <time>2025-11-03T09:22:26Z</time>
      </trkpt>
      <trkpt lat="43.35343" lon="6.49326">
        <ele>210</ele>
        <time>2025-11-03T09:22:41Z</time>
      </trkpt>
      <trkpt lat="43.35353" lon="6.49324">
        <ele>207</ele>
        <time>2025-11-03T09:23:03Z</time>
      </trkpt>
      <trkpt lat="43.35363" lon="6.49325">
        <ele>204</ele>
        <time>2025-11-03T09:23:51Z</time>
      </trkpt>
      <trkpt lat="43.35371" lon="6.49321">
        <ele>203</ele>
        <time>2025-11-03T09:24:18Z</time>
      </trkpt>
      <trkpt lat="43.3538" lon="6.49318">
        <ele>202</ele>
        <time>2025-11-03T09:24:30Z</time>
      </trkpt>
      <trkpt lat="43.35389" lon="6.49314">
        <ele>200</ele>
        <time>2025-11-03T09:24:41Z</time>
      </trkpt>
      <trkpt lat="43.35397" lon="6.49308">
        <ele>199</ele>
        <time>2025-11-03T09:24:52Z</time>
      </trkpt>
      <trkpt lat="43.35405" lon="6.49302">
        <ele>198</ele>
        <time>2025-11-03T09:25:02Z</time>
      </trkpt>
      <trkpt lat="43.35412" lon="6.49293">
        <ele>199</ele>
        <time>2025-11-03T09:25:18Z</time>
      </trkpt>
      <trkpt lat="43.35422" lon="6.49287">
        <ele>199</ele>
        <time>2025-11-03T09:25:30Z</time>
      </trkpt>
      <trkpt lat="43.35431" lon="6.49284">
        <ele>198</ele>
        <time>2025-11-03T09:25:40Z</time>
      </trkpt>
      <trkpt lat="43.3544" lon="6.49279">
        <ele>198</ele>
        <time>2025-11-03T09:25:51Z</time>
      </trkpt>
      <trkpt lat="43.35448" lon="6.49272">
        <ele>198</ele>
        <time>2025-11-03T09:26:04Z</time>
      </trkpt>
      <trkpt lat="43.35457" lon="6.49266">
        <ele>199</ele>
        <time>2025-11-03T09:26:15Z</time>
      </trkpt>
      <trkpt lat="43.35466" lon="6.49262">
        <ele>198</ele>
        <time>2025-11-03T09:26:34Z</time>
      </trkpt>
      <trkpt lat="43.35476" lon="6.49262">
        <ele>196</ele>
        <time>2025-11-03T09:26:46Z</time>
      </trkpt>
      <trkpt lat="43.35485" lon="6.49259">
        <ele>194</ele>
        <time>2025-11-03T09:27:10Z</time>
      </trkpt>
      <trkpt lat="43.35494" lon="6.4926">
        <ele>192</ele>
        <time>2025-11-03T09:27:23Z</time>
      </trkpt>
      <trkpt lat="43.35503" lon="6.49257">
        <ele>190</ele>
        <time>2025-11-03T09:27:33Z</time>
      </trkpt>
      <trkpt lat="43.35512" lon="6.49252">
        <ele>189</ele>
        <time>2025-11-03T09:27:46Z</time>
      </trkpt>
      <trkpt lat="43.35521" lon="6.4925">
        <ele>188</ele>
        <time>2025-11-03T09:27:58Z</time>
      </trkpt>
      <trkpt lat="43.35529" lon="6.49244">
        <ele>187</ele>
        <time>2025-11-03T09:28:10Z</time>
      </trkpt>
      <trkpt lat="43.35536" lon="6.49235">
        <ele>186</ele>
        <time>2025-11-03T09:28:23Z</time>
      </trkpt>
      <trkpt lat="43.35543" lon="6.49227">
        <ele>185</ele>
        <time>2025-11-03T09:28:36Z</time>
      </trkpt>
      <trkpt lat="43.35549" lon="6.49217">
        <ele>185</ele>
        <time>2025-11-03T09:28:48Z</time>
      </trkpt>
      <trkpt lat="43.35555" lon="6.49207">
        <ele>185</ele>
        <time>2025-11-03T09:29:00Z</time>
      </trkpt>
      <trkpt lat="43.35561" lon="6.49197">
        <ele>184</ele>
        <time>2025-11-03T09:29:44Z</time>
      </trkpt>
      <trkpt lat="43.35565" lon="6.49186">
        <ele>184</ele>
        <time>2025-11-03T09:29:57Z</time>
      </trkpt>
      <trkpt lat="43.35571" lon="6.49176">
        <ele>183</ele>
        <time>2025-11-03T09:30:06Z</time>
      </trkpt>
      <trkpt lat="43.35574" lon="6.49163">
        <ele>183</ele>
        <time>2025-11-03T09:30:19Z</time>
      </trkpt>
      <trkpt lat="43.35577" lon="6.49151">
        <ele>183</ele>
        <time>2025-11-03T09:30:29Z</time>
      </trkpt>
      <trkpt lat="43.35576" lon="6.49139">
        <ele>185</ele>
        <time>2025-11-03T09:30:40Z</time>
      </trkpt>
      <trkpt lat="43.35576" lon="6.49125">
        <ele>187</ele>
        <time>2025-11-03T09:30:50Z</time>
      </trkpt>
      <trkpt lat="43.35586" lon="6.49119">
        <ele>185</ele>
        <time>2025-11-03T09:31:01Z</time>
      </trkpt>
      <trkpt lat="43.35595" lon="6.49118">
        <ele>181</ele>
        <time>2025-11-03T09:31:14Z</time>
      </trkpt>
      <trkpt lat="43.35605" lon="6.49118">
        <ele>178</ele>
        <time>2025-11-03T09:31:23Z</time>
      </trkpt>
      <trkpt lat="43.35612" lon="6.49111">
        <ele>176</ele>
        <time>2025-11-03T09:31:31Z</time>
      </trkpt>
      <trkpt lat="43.35604" lon="6.49118">
        <ele>178</ele>
        <time>2025-11-03T09:31:51Z</time>
      </trkpt>
      <trkpt lat="43.35613" lon="6.49112">
        <ele>176</ele>
        <time>2025-11-03T09:33:01Z</time>
      </trkpt>
      <trkpt lat="43.35615" lon="6.49098">
        <ele>177</ele>
        <time>2025-11-03T09:33:10Z</time>
      </trkpt>
      <trkpt lat="43.35615" lon="6.49085">
        <ele>178</ele>
        <time>2025-11-03T09:33:18Z</time>
      </trkpt>
      <trkpt lat="43.35619" lon="6.49072">
        <ele>179</ele>
        <time>2025-11-03T09:33:27Z</time>
      </trkpt>
      <trkpt lat="43.35625" lon="6.49063">
        <ele>178</ele>
        <time>2025-11-03T09:33:36Z</time>
      </trkpt>
      <trkpt lat="43.35632" lon="6.49055">
        <ele>176</ele>
        <time>2025-11-03T09:33:44Z</time>
      </trkpt>
      <trkpt lat="43.35636" lon="6.49042">
        <ele>177</ele>
        <time>2025-11-03T09:33:53Z</time>
      </trkpt>
      <trkpt lat="43.35639" lon="6.4903">
        <ele>178</ele>
        <time>2025-11-03T09:34:02Z</time>
      </trkpt>
      <trkpt lat="43.3564" lon="6.49015">
        <ele>179</ele>
        <time>2025-11-03T09:34:11Z</time>
      </trkpt>
      <trkpt lat="43.35641" lon="6.49003">
        <ele>179</ele>
        <time>2025-11-03T09:34:18Z</time>
      </trkpt>
      <trkpt lat="43.35644" lon="6.48991">
        <ele>179</ele>
        <time>2025-11-03T09:34:25Z</time>
      </trkpt>
      <trkpt lat="43.35647" lon="6.48978">
        <ele>180</ele>
        <time>2025-11-03T09:34:32Z</time>
      </trkpt>
      <trkpt lat="43.35645" lon="6.48966">
        <ele>181</ele>
        <time>2025-11-03T09:34:39Z</time>
      </trkpt>
      <trkpt lat="43.35644" lon="6.48953">
        <ele>182</ele>
        <time>2025-11-03T09:34:46Z</time>
      </trkpt>
      <trkpt lat="43.35648" lon="6.4894">
        <ele>181</ele>
        <time>2025-11-03T09:34:54Z</time>
      </trkpt>
      <trkpt lat="43.35658" lon="6.48938">
        <ele>178</ele>
        <time>2025-11-03T09:35:03Z</time>
      </trkpt>
      <trkpt lat="43.35667" lon="6.48934">
        <ele>176</ele>
        <time>2025-11-03T09:35:10Z</time>
      </trkpt>
      <trkpt lat="43.35674" lon="6.48925">
        <ele>177</ele>
        <time>2025-11-03T09:35:17Z</time>
      </trkpt>
      <trkpt lat="43.35678" lon="6.48914">
        <ele>178</ele>
        <time>2025-11-03T09:35:24Z</time>
      </trkpt>
      <trkpt lat="43.35684" lon="6.48905">
        <ele>179</ele>
        <time>2025-11-03T09:35:32Z</time>
      </trkpt>
      <trkpt lat="43.35691" lon="6.48913">
        <ele>178</ele>
        <time>2025-11-03T09:35:46Z</time>
      </trkpt>
      <trkpt lat="43.35691" lon="6.48926">
        <ele>177</ele>
        <time>2025-11-03T09:35:55Z</time>
      </trkpt>
      <trkpt lat="43.35692" lon="6.48939">
        <ele>176</ele>
        <time>2025-11-03T09:36:07Z</time>
      </trkpt>
      <trkpt lat="43.35691" lon="6.48951">
        <ele>175</ele>
        <time>2025-11-03T09:36:17Z</time>
      </trkpt>
      <trkpt lat="43.35691" lon="6.48964">
        <ele>173</ele>
        <time>2025-11-03T09:36:27Z</time>
      </trkpt>
      <trkpt lat="43.3569" lon="6.48977">
        <ele>172</ele>
        <time>2025-11-03T09:36:36Z</time>
      </trkpt>
      <trkpt lat="43.3569" lon="6.4899">
        <ele>171</ele>
        <time>2025-11-03T09:36:44Z</time>
      </trkpt>
      <trkpt lat="43.35691" lon="6.49004">
        <ele>169</ele>
        <time>2025-11-03T09:36:53Z</time>
      </trkpt>
      <trkpt lat="43.35693" lon="6.49017">
        <ele>167</ele>
        <time>2025-11-03T09:37:01Z</time>
      </trkpt>
      <trkpt lat="43.35694" lon="6.49031">
        <ele>165</ele>
        <time>2025-11-03T09:37:10Z</time>
      </trkpt>
      <trkpt lat="43.35697" lon="6.49043">
        <ele>164</ele>
        <time>2025-11-03T09:37:22Z</time>
      </trkpt>
      <trkpt lat="43.35702" lon="6.49054">
        <ele>162</ele>
        <time>2025-11-03T09:37:31Z</time>
      </trkpt>
      <trkpt lat="43.3571" lon="6.4906">
        <ele>162</ele>
        <time>2025-11-03T09:37:41Z</time>
      </trkpt>
      <trkpt lat="43.35716" lon="6.4907">
        <ele>161</ele>
        <time>2025-11-03T09:37:54Z</time>
      </trkpt>
      <trkpt lat="43.35724" lon="6.49076">
        <ele>161</ele>
        <time>2025-11-03T09:38:08Z</time>
      </trkpt>
      <trkpt lat="43.3573" lon="6.49086">
        <ele>160</ele>
        <time>2025-11-03T09:38:21Z</time>
      </trkpt>
      <trkpt lat="43.35726" lon="6.49099">
        <ele>158</ele>
        <time>2025-11-03T09:38:35Z</time>
      </trkpt>
      <trkpt lat="43.35721" lon="6.4911">
        <ele>156</ele>
        <time>2025-11-03T09:38:46Z</time>
      </trkpt>
      <trkpt lat="43.3572" lon="6.49122">
        <ele>155</ele>
        <time>2025-11-03T09:38:55Z</time>
      </trkpt>
      <trkpt lat="43.3572" lon="6.49135">
        <ele>154</ele>
        <time>2025-11-03T09:40:26Z</time>
      </trkpt>
      <trkpt lat="43.35721" lon="6.49148">
        <ele>153</ele>
        <time>2025-11-03T09:40:43Z</time>
      </trkpt>
      <trkpt lat="43.3572" lon="6.49161">
        <ele>152</ele>
        <time>2025-11-03T09:40:53Z</time>
      </trkpt>
      <trkpt lat="43.35723" lon="6.49173">
        <ele>151</ele>
        <time>2025-11-03T09:41:03Z</time>
      </trkpt>
      <trkpt lat="43.35728" lon="6.49184">
        <ele>152</ele>
        <time>2025-11-03T09:41:13Z</time>
      </trkpt>
      <trkpt lat="43.35734" lon="6.49194">
        <ele>152</ele>
        <time>2025-11-03T09:41:23Z</time>
      </trkpt>
      <trkpt lat="43.3574" lon="6.49205">
        <ele>152</ele>
        <time>2025-11-03T09:41:33Z</time>
      </trkpt>
      <trkpt lat="43.35745" lon="6.49215">
        <ele>151</ele>
        <time>2025-11-03T09:41:43Z</time>
      </trkpt>
      <trkpt lat="43.3575" lon="6.49226">
        <ele>150</ele>
        <time>2025-11-03T09:41:53Z</time>
      </trkpt>
      <trkpt lat="43.35756" lon="6.49236">
        <ele>149</ele>
        <time>2025-11-03T09:42:03Z</time>
      </trkpt>
      <trkpt lat="43.35763" lon="6.49244">
        <ele>148</ele>
        <time>2025-11-03T09:42:16Z</time>
      </trkpt>
      <trkpt lat="43.35771" lon="6.49251">
        <ele>148</ele>
        <time>2025-11-03T09:42:27Z</time>
      </trkpt>
      <trkpt lat="43.35778" lon="6.49259">
        <ele>147</ele>
        <time>2025-11-03T09:42:38Z</time>
      </trkpt>
      <trkpt lat="43.35783" lon="6.49269">
        <ele>146</ele>
        <time>2025-11-03T09:42:49Z</time>
      </trkpt>
      <trkpt lat="43.35789" lon="6.4928">
        <ele>145</ele>
        <time>2025-11-03T09:43:01Z</time>
      </trkpt>
      <trkpt lat="43.35795" lon="6.4929">
        <ele>144</ele>
        <time>2025-11-03T09:43:13Z</time>
      </trkpt>
      <trkpt lat="43.35803" lon="6.49297">
        <ele>143</ele>
        <time>2025-11-03T09:43:25Z</time>
      </trkpt>
      <trkpt lat="43.35812" lon="6.49301">
        <ele>142</ele>
        <time>2025-11-03T09:43:37Z</time>
      </trkpt>
      <trkpt lat="43.35821" lon="6.49303">
        <ele>142</ele>
        <time>2025-11-03T09:43:49Z</time>
      </trkpt>
      <trkpt lat="43.35831" lon="6.49305">
        <ele>141</ele>
        <time>2025-11-03T09:44:02Z</time>
      </trkpt>
      <trkpt lat="43.3584" lon="6.49308">
        <ele>140</ele>
        <time>2025-11-03T09:44:15Z</time>
      </trkpt>
      <trkpt lat="43.35849" lon="6.49312">
        <ele>139</ele>
        <time>2025-11-03T09:44:26Z</time>
      </trkpt>
      <trkpt lat="43.35843" lon="6.49322">
        <ele>138</ele>
        <time>2025-11-03T09:50:03Z</time>
      </trkpt>
      <trkpt lat="43.35833" lon="6.49325">
        <ele>138</ele>
        <time>2025-11-03T09:50:12Z</time>
      </trkpt>
      <trkpt lat="43.35824" lon="6.49327">
        <ele>137</ele>
        <time>2025-11-03T09:50:22Z</time>
      </trkpt>
      <trkpt lat="43.35815" lon="6.49331">
        <ele>136</ele>
        <time>2025-11-03T09:50:40Z</time>
      </trkpt>
      <trkpt lat="43.35812" lon="6.49343">
        <ele>135</ele>
        <time>2025-11-03T09:51:00Z</time>
      </trkpt>
      <trkpt lat="43.35809" lon="6.49357">
        <ele>133</ele>
        <time>2025-11-03T09:51:21Z</time>
      </trkpt>
      <trkpt lat="43.35812" lon="6.49369">
        <ele>133</ele>
        <time>2025-11-03T09:52:08Z</time>
      </trkpt>
      <trkpt lat="43.35812" lon="6.49381">
        <ele>133</ele>
        <time>2025-11-03T09:52:42Z</time>
      </trkpt>
      <trkpt lat="43.35819" lon="6.4939">
        <ele>134</ele>
        <time>2025-11-03T09:52:51Z</time>
      </trkpt>
      <trkpt lat="43.35827" lon="6.49397">
        <ele>135</ele>
        <time>2025-11-03T09:53:01Z</time>
      </trkpt>
      <trkpt lat="43.35833" lon="6.49406">
        <ele>136</ele>
        <time>2025-11-03T09:53:13Z</time>
      </trkpt>
      <trkpt lat="43.35836" lon="6.49418">
        <ele>137</ele>
        <time>2025-11-03T09:53:25Z</time>
      </trkpt>
      <trkpt lat="43.3584" lon="6.49429">
        <ele>137</ele>
        <time>2025-11-03T09:53:37Z</time>
      </trkpt>
      <trkpt lat="43.35845" lon="6.4944">
        <ele>138</ele>
        <time>2025-11-03T09:53:47Z</time>
      </trkpt>
      <trkpt lat="43.35849" lon="6.49451">
        <ele>139</ele>
        <time>2025-11-03T09:53:57Z</time>
      </trkpt>
      <trkpt lat="43.35852" lon="6.49463">
        <ele>140</ele>
        <time>2025-11-03T09:54:10Z</time>
      </trkpt>
      <trkpt lat="43.35852" lon="6.49476">
        <ele>142</ele>
        <time>2025-11-03T09:54:25Z</time>
      </trkpt>
      <trkpt lat="43.35852" lon="6.49489">
        <ele>143</ele>
        <time>2025-11-03T09:54:36Z</time>
      </trkpt>
      <trkpt lat="43.35851" lon="6.49501">
        <ele>144</ele>
        <time>2025-11-03T09:54:59Z</time>
      </trkpt>
      <trkpt lat="43.35851" lon="6.49514">
        <ele>145</ele>
        <time>2025-11-03T09:55:11Z</time>
      </trkpt>
      <trkpt lat="43.35851" lon="6.49527">
        <ele>147</ele>
        <time>2025-11-03T09:55:24Z</time>
      </trkpt>
      <trkpt lat="43.35849" lon="6.49539">
        <ele>147</ele>
        <time>2025-11-03T09:55:41Z</time>
      </trkpt>
      <trkpt lat="43.35853" lon="6.4955">
        <ele>149</ele>
        <time>2025-11-03T09:55:54Z</time>
      </trkpt>
      <trkpt lat="43.35856" lon="6.49563">
        <ele>150</ele>
        <time>2025-11-03T09:56:04Z</time>
      </trkpt>
      <trkpt lat="43.35858" lon="6.49575">
        <ele>151</ele>
        <time>2025-11-03T09:56:15Z</time>
      </trkpt>
      <trkpt lat="43.35861" lon="6.49588">
        <ele>152</ele>
        <time>2025-11-03T09:56:26Z</time>
      </trkpt>
      <trkpt lat="43.35863" lon="6.496">
        <ele>153</ele>
        <time>2025-11-03T09:56:38Z</time>
      </trkpt>
      <trkpt lat="43.35864" lon="6.49613">
        <ele>153</ele>
        <time>2025-11-03T09:56:54Z</time>
      </trkpt>
      <trkpt lat="43.35863" lon="6.49626">
        <ele>152</ele>
        <time>2025-11-03T09:57:04Z</time>
      </trkpt>
      <trkpt lat="43.35863" lon="6.49639">
        <ele>152</ele>
        <time>2025-11-03T09:57:14Z</time>
      </trkpt>
      <trkpt lat="43.35867" lon="6.4965">
        <ele>153</ele>
        <time>2025-11-03T09:57:25Z</time>
      </trkpt>
      <trkpt lat="43.35868" lon="6.49664">
        <ele>155</ele>
        <time>2025-11-03T09:57:35Z</time>
      </trkpt>
      <trkpt lat="43.35868" lon="6.49677">
        <ele>155</ele>
        <time>2025-11-03T09:57:46Z</time>
      </trkpt>
      <trkpt lat="43.35867" lon="6.4969">
        <ele>155</ele>
        <time>2025-11-03T09:57:57Z</time>
      </trkpt>
      <trkpt lat="43.35865" lon="6.49703">
        <ele>155</ele>
        <time>2025-11-03T09:58:08Z</time>
      </trkpt>
      <trkpt lat="43.35861" lon="6.49716">
        <ele>154</ele>
        <time>2025-11-03T09:58:18Z</time>
      </trkpt>
      <trkpt lat="43.35857" lon="6.49727">
        <ele>154</ele>
        <time>2025-11-03T09:58:27Z</time>
      </trkpt>
      <trkpt lat="43.35854" lon="6.49739">
        <ele>155</ele>
        <time>2025-11-03T09:58:37Z</time>
      </trkpt>
      <trkpt lat="43.35852" lon="6.49752">
        <ele>156</ele>
        <time>2025-11-03T09:58:48Z</time>
      </trkpt>
      <trkpt lat="43.35852" lon="6.49764">
        <ele>156</ele>
        <time>2025-11-03T09:58:59Z</time>
      </trkpt>
      <trkpt lat="43.35852" lon="6.49777">
        <ele>156</ele>
        <time>2025-11-03T09:59:10Z</time>
      </trkpt>
      <trkpt lat="43.35852" lon="6.49791">
        <ele>157</ele>
        <time>2025-11-03T09:59:23Z</time>
      </trkpt>
      <trkpt lat="43.35853" lon="6.49804">
        <ele>158</ele>
        <time>2025-11-03T09:59:35Z</time>
      </trkpt>
      <trkpt lat="43.35856" lon="6.49817">
        <ele>158</ele>
        <time>2025-11-03T09:59:47Z</time>
      </trkpt>
      <trkpt lat="43.35858" lon="6.4983">
        <ele>159</ele>
        <time>2025-11-03T09:59:57Z</time>
      </trkpt>
      <trkpt lat="43.35859" lon="6.49842">
        <ele>158</ele>
        <time>2025-11-03T10:00:07Z</time>
      </trkpt>
      <trkpt lat="43.35862" lon="6.49854">
        <ele>158</ele>
        <time>2025-11-03T10:00:16Z</time>
      </trkpt>
      <trkpt lat="43.35864" lon="6.49867">
        <ele>158</ele>
        <time>2025-11-03T10:00:28Z</time>
      </trkpt>
      <trkpt lat="43.35867" lon="6.49879">
        <ele>159</ele>
        <time>2025-11-03T10:00:35Z</time>
      </trkpt>
      <trkpt lat="43.35869" lon="6.49893">
        <ele>158</ele>
        <time>2025-11-03T10:00:47Z</time>
      </trkpt>
      <trkpt lat="43.35872" lon="6.49904">
        <ele>159</ele>
        <time>2025-11-03T10:00:57Z</time>
      </trkpt>
      <trkpt lat="43.35872" lon="6.49917">
        <ele>158</ele>
        <time>2025-11-03T10:01:07Z</time>
      </trkpt>
      <trkpt lat="43.35874" lon="6.4993">
        <ele>159</ele>
        <time>2025-11-03T10:01:21Z</time>
      </trkpt>
      <trkpt lat="43.35882" lon="6.49938">
        <ele>160</ele>
        <time>2025-11-03T10:01:49Z</time>
      </trkpt>
      <trkpt lat="43.35888" lon="6.49949">
        <ele>161</ele>
        <time>2025-11-03T10:02:02Z</time>
      </trkpt>
      <trkpt lat="43.35891" lon="6.49962">
        <ele>163</ele>
        <time>2025-11-03T10:02:16Z</time>
      </trkpt>
      <trkpt lat="43.35894" lon="6.49974">
        <ele>164</ele>
        <time>2025-11-03T10:02:38Z</time>
      </trkpt>
      <trkpt lat="43.35895" lon="6.49986">
        <ele>166</ele>
        <time>2025-11-03T10:03:22Z</time>
      </trkpt>
      <trkpt lat="43.35898" lon="6.49998">
        <ele>167</ele>
        <time>2025-11-03T10:03:42Z</time>
      </trkpt>
      <trkpt lat="43.359" lon="6.50011">
        <ele>169</ele>
        <time>2025-11-03T10:04:18Z</time>
      </trkpt>
      <trkpt lat="43.35907" lon="6.50019">
        <ele>171</ele>
        <time>2025-11-03T10:05:28Z</time>
      </trkpt>
      <trkpt lat="43.35911" lon="6.5003">
        <ele>172</ele>
        <time>2025-11-03T10:07:04Z</time>
      </trkpt>
      <trkpt lat="43.35921" lon="6.50031">
        <ele>174</ele>
        <time>2025-11-03T10:07:23Z</time>
      </trkpt>
      <trkpt lat="43.3593" lon="6.50027">
        <ele>174</ele>
        <time>2025-11-03T10:07:35Z</time>
      </trkpt>
      <trkpt lat="43.3594" lon="6.50024">
        <ele>175</ele>
        <time>2025-11-03T10:07:47Z</time>
      </trkpt>
      <trkpt lat="43.35949" lon="6.50029">
        <ele>177</ele>
        <time>2025-11-03T10:08:02Z</time>
      </trkpt>
      <trkpt lat="43.35954" lon="6.50038">
        <ele>179</ele>
        <time>2025-11-03T10:08:15Z</time>
      </trkpt>
      <trkpt lat="43.35959" lon="6.50049">
        <ele>182</ele>
        <time>2025-11-03T10:08:24Z</time>
      </trkpt>
      <trkpt lat="43.35964" lon="6.5006">
        <ele>184</ele>
        <time>2025-11-03T10:08:35Z</time>
      </trkpt>
      <trkpt lat="43.35967" lon="6.50072">
        <ele>187</ele>
        <time>2025-11-03T10:08:48Z</time>
      </trkpt>
      <trkpt lat="43.3597" lon="6.50084">
        <ele>189</ele>
        <time>2025-11-03T10:09:10Z</time>
      </trkpt>
      <trkpt lat="43.35977" lon="6.50093">
        <ele>192</ele>
        <time>2025-11-03T10:15:38Z</time>
      </trkpt>
      <trkpt lat="43.35984" lon="6.50101">
        <ele>194</ele>
        <time>2025-11-03T10:15:52Z</time>
      </trkpt>
      <trkpt lat="43.35991" lon="6.50109">
        <ele>195</ele>
        <time>2025-11-03T10:16:09Z</time>
      </trkpt>
      <trkpt lat="43.35997" lon="6.50119">
        <ele>198</ele>
        <time>2025-11-03T10:16:33Z</time>
      </trkpt>
      <trkpt lat="43.36004" lon="6.50128">
        <ele>201</ele>
        <time>2025-11-03T10:16:44Z</time>
      </trkpt>
      <trkpt lat="43.36011" lon="6.50136">
        <ele>203</ele>
        <time>2025-11-03T10:16:53Z</time>
      </trkpt>
      <trkpt lat="43.36019" lon="6.50144">
        <ele>204</ele>
        <time>2025-11-03T10:17:06Z</time>
      </trkpt>
      <trkpt lat="43.36027" lon="6.50151">
        <ele>205</ele>
        <time>2025-11-03T10:17:23Z</time>
      </trkpt>
      <trkpt lat="43.36034" lon="6.50159">
        <ele>207</ele>
        <time>2025-11-03T10:17:40Z</time>
      </trkpt>
      <trkpt lat="43.36043" lon="6.50164">
        <ele>208</ele>
        <time>2025-11-03T10:17:54Z</time>
      </trkpt>
      <trkpt lat="43.36052" lon="6.5017">
        <ele>210</ele>
        <time>2025-11-03T10:18:14Z</time>
      </trkpt>
      <trkpt lat="43.3606" lon="6.50177">
        <ele>212</ele>
        <time>2025-11-03T10:18:33Z</time>
      </trkpt>
      <trkpt lat="43.36066" lon="6.50187">
        <ele>215</ele>
        <time>2025-11-03T10:18:48Z</time>
      </trkpt>
      <trkpt lat="43.36075" lon="6.50191">
        <ele>217</ele>
        <time>2025-11-03T10:19:11Z</time>
      </trkpt>
      <trkpt lat="43.36083" lon="6.50197">
        <ele>219</ele>
        <time>2025-11-03T10:19:28Z</time>
      </trkpt>
      <trkpt lat="43.36091" lon="6.50204">
        <ele>220</ele>
        <time>2025-11-03T10:19:51Z</time>
      </trkpt>
      <trkpt lat="43.36097" lon="6.50213">
        <ele>222</ele>
        <time>2025-11-03T10:20:01Z</time>
      </trkpt>
      <trkpt lat="43.36106" lon="6.50219">
        <ele>223</ele>
        <time>2025-11-03T10:20:08Z</time>
      </trkpt>
      <trkpt lat="43.36114" lon="6.50226">
        <ele>224</ele>
        <time>2025-11-03T10:20:20Z</time>
      </trkpt>
      <trkpt lat="43.36121" lon="6.50234">
        <ele>226</ele>
        <time>2025-11-03T10:20:29Z</time>
      </trkpt>
      <trkpt lat="43.36127" lon="6.50243">
        <ele>227</ele>
        <time>2025-11-03T10:20:42Z</time>
      </trkpt>
      <trkpt lat="43.36135" lon="6.5025">
        <ele>229</ele>
        <time>2025-11-03T10:20:58Z</time>
      </trkpt>
      <trkpt lat="43.36143" lon="6.50257">
        <ele>230</ele>
        <time>2025-11-03T10:23:57Z</time>
      </trkpt>
      <trkpt lat="43.36151" lon="6.50263">
        <ele>232</ele>
        <time>2025-11-03T10:24:13Z</time>
      </trkpt>
      <trkpt lat="43.36159" lon="6.50269">
        <ele>234</ele>
        <time>2025-11-03T10:24:33Z</time>
      </trkpt>
      <trkpt lat="43.36167" lon="6.50273">
        <ele>236</ele>
        <time>2025-11-03T10:24:47Z</time>
      </trkpt>
      <trkpt lat="43.36176" lon="6.50278">
        <ele>238</ele>
        <time>2025-11-03T10:24:55Z</time>
      </trkpt>
      <trkpt lat="43.36183" lon="6.50286">
        <ele>240</ele>
        <time>2025-11-03T10:25:14Z</time>
      </trkpt>
      <trkpt lat="43.3619" lon="6.50295">
        <ele>241</ele>
        <time>2025-11-03T10:25:38Z</time>
      </trkpt>
      <trkpt lat="43.36199" lon="6.50298">
        <ele>242</ele>
        <time>2025-11-03T10:25:58Z</time>
      </trkpt>
      <trkpt lat="43.36208" lon="6.50299">
        <ele>242</ele>
        <time>2025-11-03T10:26:21Z</time>
      </trkpt>
      <trkpt lat="43.36214" lon="6.50308">
        <ele>241</ele>
        <time>2025-11-03T10:27:08Z</time>
      </trkpt>
      <trkpt lat="43.36205" lon="6.50312">
        <ele>242</ele>
        <time>2025-11-03T10:27:29Z</time>
      </trkpt>
      <trkpt lat="43.36196" lon="6.50312">
        <ele>242</ele>
        <time>2025-11-03T10:27:43Z</time>
      </trkpt>
      <trkpt lat="43.36194" lon="6.50325">
        <ele>243</ele>
        <time>2025-11-03T10:28:49Z</time>
      </trkpt>
      <trkpt lat="43.36203" lon="6.50319">
        <ele>242</ele>
        <time>2025-11-03T10:30:42Z</time>
      </trkpt>
      <trkpt lat="43.36211" lon="6.50313">
        <ele>241</ele>
        <time>2025-11-03T10:30:53Z</time>
      </trkpt>
      <trkpt lat="43.36204" lon="6.50321">
        <ele>242</ele>
        <time>2025-11-03T10:32:27Z</time>
      </trkpt>
      <trkpt lat="43.36197" lon="6.5033">
        <ele>243</ele>
        <time>2025-11-03T10:32:46Z</time>
      </trkpt>
      <trkpt lat="43.36192" lon="6.50341">
        <ele>244</ele>
        <time>2025-11-03T10:32:56Z</time>
      </trkpt>
      <trkpt lat="43.36188" lon="6.50353">
        <ele>244</ele>
        <time>2025-11-03T10:33:08Z</time>
      </trkpt>
      <trkpt lat="43.36184" lon="6.50363">
        <ele>245</ele>
        <time>2025-11-03T10:33:19Z</time>
      </trkpt>
      <trkpt lat="43.36178" lon="6.50374">
        <ele>245</ele>
        <time>2025-11-03T10:33:31Z</time>
      </trkpt>
      <trkpt lat="43.36175" lon="6.50386">
        <ele>245</ele>
        <time>2025-11-03T10:34:10Z</time>
      </trkpt>
      <trkpt lat="43.36169" lon="6.50396">
        <ele>246</ele>
        <time>2025-11-03T10:34:21Z</time>
      </trkpt>
      <trkpt lat="43.36164" lon="6.50407">
        <ele>246</ele>
        <time>2025-11-03T10:34:31Z</time>
      </trkpt>
      <trkpt lat="43.36158" lon="6.50417">
        <ele>247</ele>
        <time>2025-11-03T10:35:20Z</time>
      </trkpt>
      <trkpt lat="43.36155" lon="6.50429">
        <ele>247</ele>
        <time>2025-11-03T10:35:28Z</time>
      </trkpt>
      <trkpt lat="43.36151" lon="6.5044">
        <ele>247</ele>
        <time>2025-11-03T10:35:40Z</time>
      </trkpt>
      <trkpt lat="43.36145" lon="6.5045">
        <ele>246</ele>
        <time>2025-11-03T10:35:49Z</time>
      </trkpt>
      <trkpt lat="43.36139" lon="6.5046">
        <ele>246</ele>
        <time>2025-11-03T10:35:59Z</time>
      </trkpt>
      <trkpt lat="43.3613" lon="6.50466">
        <ele>246</ele>
        <time>2025-11-03T10:36:07Z</time>
      </trkpt>
      <trkpt lat="43.3612" lon="6.50468">
        <ele>246</ele>
        <time>2025-11-03T10:36:15Z</time>
      </trkpt>
      <trkpt lat="43.36111" lon="6.50471">
        <ele>247</ele>
        <time>2025-11-03T10:36:24Z</time>
      </trkpt>
      <trkpt lat="43.36102" lon="6.50473">
        <ele>247</ele>
        <time>2025-11-03T10:36:31Z</time>
      </trkpt>
      <trkpt lat="43.36092" lon="6.50475">
        <ele>247</ele>
        <time>2025-11-03T10:36:39Z</time>
      </trkpt>
      <trkpt lat="43.36084" lon="6.5048">
        <ele>247</ele>
        <time>2025-11-03T10:36:48Z</time>
      </trkpt>
      <trkpt lat="43.36075" lon="6.50485">
        <ele>247</ele>
        <time>2025-11-03T10:36:58Z</time>
      </trkpt>
      <trkpt lat="43.36067" lon="6.50491">
        <ele>246</ele>
        <time>2025-11-03T10:37:08Z</time>
      </trkpt>
      <trkpt lat="43.36059" lon="6.50499">
        <ele>246</ele>
        <time>2025-11-03T10:37:19Z</time>
      </trkpt>
      <trkpt lat="43.36052" lon="6.50506">
        <ele>246</ele>
        <time>2025-11-03T10:37:30Z</time>
      </trkpt>
      <trkpt lat="43.36046" lon="6.50517">
        <ele>245</ele>
        <time>2025-11-03T10:37:39Z</time>
      </trkpt>
      <trkpt lat="43.3604" lon="6.50527">
        <ele>246</ele>
        <time>2025-11-03T10:37:52Z</time>
      </trkpt>
      <trkpt lat="43.36035" lon="6.50537">
        <ele>246</ele>
        <time>2025-11-03T10:38:02Z</time>
      </trkpt>
      <trkpt lat="43.36029" lon="6.50548">
        <ele>247</ele>
        <time>2025-11-03T10:38:12Z</time>
      </trkpt>
      <trkpt lat="43.36025" lon="6.50559">
        <ele>248</ele>
        <time>2025-11-03T10:38:24Z</time>
      </trkpt>
      <trkpt lat="43.36024" lon="6.50572">
        <ele>249</ele>
        <time>2025-11-03T10:38:33Z</time>
      </trkpt>
      <trkpt lat="43.36022" lon="6.50585">
        <ele>251</ele>
        <time>2025-11-03T10:38:42Z</time>
      </trkpt>
      <trkpt lat="43.36022" lon="6.50597">
        <ele>252</ele>
        <time>2025-11-03T10:38:51Z</time>
      </trkpt>
      <trkpt lat="43.36022" lon="6.50611">
        <ele>253</ele>
        <time>2025-11-03T10:39:01Z</time>
      </trkpt>
      <trkpt lat="43.36021" lon="6.50624">
        <ele>254</ele>
        <time>2025-11-03T10:39:10Z</time>
      </trkpt>
      <trkpt lat="43.36019" lon="6.50636">
        <ele>256</ele>
        <time>2025-11-03T10:39:25Z</time>
      </trkpt>
      <trkpt lat="43.36013" lon="6.50646">
        <ele>258</ele>
        <time>2025-11-03T10:39:37Z</time>
      </trkpt>
      <trkpt lat="43.36007" lon="6.50656">
        <ele>261</ele>
        <time>2025-11-03T10:39:49Z</time>
      </trkpt>
      <trkpt lat="43.36002" lon="6.50667">
        <ele>263</ele>
        <time>2025-11-03T10:40:02Z</time>
      </trkpt>
      <trkpt lat="43.36001" lon="6.5068">
        <ele>263</ele>
        <time>2025-11-03T10:40:11Z</time>
      </trkpt>
      <trkpt lat="43.36003" lon="6.50693">
        <ele>260</ele>
        <time>2025-11-03T10:40:20Z</time>
      </trkpt>
      <trkpt lat="43.36004" lon="6.50706">
        <ele>260</ele>
        <time>2025-11-03T10:40:29Z</time>
      </trkpt>
      <trkpt lat="43.36007" lon="6.50719">
        <ele>260</ele>
        <time>2025-11-03T10:40:39Z</time>
      </trkpt>
      <trkpt lat="43.36009" lon="6.5073">
        <ele>260</ele>
        <time>2025-11-03T10:40:47Z</time>
      </trkpt>
      <trkpt lat="43.36012" lon="6.50742">
        <ele>261</ele>
        <time>2025-11-03T10:41:22Z</time>
      </trkpt>
      <trkpt lat="43.36014" lon="6.50755">
        <ele>263</ele>
        <time>2025-11-03T10:41:35Z</time>
      </trkpt>
      <trkpt lat="43.36022" lon="6.50763">
        <ele>261</ele>
        <time>2025-11-03T10:41:54Z</time>
      </trkpt>
      <trkpt lat="43.36031" lon="6.50764">
        <ele>258</ele>
        <time>2025-11-03T10:42:12Z</time>
      </trkpt>
      <trkpt lat="43.3604" lon="6.50761">
        <ele>256</ele>
        <time>2025-11-03T10:42:24Z</time>
      </trkpt>
      <trkpt lat="43.3605" lon="6.50759">
        <ele>255</ele>
        <time>2025-11-03T10:42:35Z</time>
      </trkpt>
      <trkpt lat="43.36057" lon="6.50766">
        <ele>256</ele>
        <time>2025-11-03T10:42:39Z</time>
      </trkpt>
      <trkpt lat="43.36066" lon="6.50766">
        <ele>255</ele>
        <time>2025-11-03T10:42:47Z</time>
      </trkpt>
      <trkpt lat="43.36076" lon="6.50765">
        <ele>254</ele>
        <time>2025-11-03T10:42:54Z</time>
      </trkpt>
      <trkpt lat="43.36085" lon="6.50765">
        <ele>254</ele>
        <time>2025-11-03T10:43:01Z</time>
      </trkpt>
      <trkpt lat="43.36095" lon="6.50765">
        <ele>255</ele>
        <time>2025-11-03T10:43:08Z</time>
      </trkpt>
      <trkpt lat="43.36105" lon="6.50764">
        <ele>255</ele>
        <time>2025-11-03T10:43:15Z</time>
      </trkpt>
      <trkpt lat="43.36114" lon="6.50764">
        <ele>255</ele>
        <time>2025-11-03T10:43:23Z</time>
      </trkpt>
      <trkpt lat="43.36123" lon="6.50766">
        <ele>256</ele>
        <time>2025-11-03T10:43:30Z</time>
      </trkpt>
      <trkpt lat="43.36133" lon="6.50768">
        <ele>256</ele>
        <time>2025-11-03T10:43:39Z</time>
      </trkpt>
      <trkpt lat="43.36141" lon="6.50773">
        <ele>257</ele>
        <time>2025-11-03T10:43:46Z</time>
      </trkpt>
      <trkpt lat="43.36148" lon="6.50783">
        <ele>258</ele>
        <time>2025-11-03T10:43:54Z</time>
      </trkpt>
      <trkpt lat="43.36138" lon="6.50782">
        <ele>259</ele>
        <time>2025-11-03T10:44:19Z</time>
      </trkpt>
      <trkpt lat="43.36129" lon="6.50779">
        <ele>259</ele>
        <time>2025-11-03T10:44:29Z</time>
      </trkpt>
      <trkpt lat="43.3612" lon="6.5078">
        <ele>260</ele>
        <time>2025-11-03T10:44:40Z</time>
      </trkpt>
      <trkpt lat="43.36111" lon="6.50781">
        <ele>260</ele>
        <time>2025-11-03T10:44:49Z</time>
      </trkpt>
      <trkpt lat="43.36101" lon="6.50782">
        <ele>260</ele>
        <time>2025-11-03T10:44:58Z</time>
      </trkpt>
      <trkpt lat="43.36092" lon="6.50783">
        <ele>260</ele>
        <time>2025-11-03T10:45:08Z</time>
      </trkpt>
      <trkpt lat="43.36082" lon="6.50785">
        <ele>260</ele>
        <time>2025-11-03T10:45:17Z</time>
      </trkpt>
      <trkpt lat="43.36074" lon="6.50791">
        <ele>263</ele>
        <time>2025-11-03T10:45:28Z</time>
      </trkpt>
      <trkpt lat="43.36065" lon="6.50791">
        <ele>263</ele>
        <time>2025-11-03T10:45:38Z</time>
      </trkpt>
      <trkpt lat="43.36056" lon="6.50796">
        <ele>265</ele>
        <time>2025-11-03T10:45:49Z</time>
      </trkpt>
      <trkpt lat="43.36046" lon="6.50797">
        <ele>267</ele>
        <time>2025-11-03T10:45:58Z</time>
      </trkpt>
      <trkpt lat="43.36037" lon="6.508">
        <ele>269</ele>
        <time>2025-11-03T10:46:10Z</time>
      </trkpt>
      <trkpt lat="43.36026" lon="6.508">
        <ele>271</ele>
        <time>2025-11-03T10:46:21Z</time>
      </trkpt>
      <trkpt lat="43.36017" lon="6.50802">
        <ele>275</ele>
        <time>2025-11-03T10:46:30Z</time>
      </trkpt>
      <trkpt lat="43.36008" lon="6.50801">
        <ele>278</ele>
        <time>2025-11-03T10:46:39Z</time>
      </trkpt>
      <trkpt lat="43.35999" lon="6.50797">
        <ele>280</ele>
        <time>2025-11-03T10:46:48Z</time>
      </trkpt>
      <trkpt lat="43.35991" lon="6.50788">
        <ele>281</ele>
        <time>2025-11-03T10:46:57Z</time>
      </trkpt>
      <trkpt lat="43.35987" lon="6.50777">
        <ele>280</ele>
        <time>2025-11-03T10:47:07Z</time>
      </trkpt>
      <trkpt lat="43.35982" lon="6.50766">
        <ele>280</ele>
        <time>2025-11-03T10:47:17Z</time>
      </trkpt>
      <trkpt lat="43.35977" lon="6.50754">
        <ele>279</ele>
        <time>2025-11-03T10:47:27Z</time>
      </trkpt>
      <trkpt lat="43.35972" lon="6.50742">
        <ele>279</ele>
        <time>2025-11-03T10:47:37Z</time>
      </trkpt>
      <trkpt lat="43.35967" lon="6.50732">
        <ele>277</ele>
        <time>2025-11-03T10:47:49Z</time>
      </trkpt>
      <trkpt lat="43.35963" lon="6.50719">
        <ele>275</ele>
        <time>2025-11-03T10:47:57Z</time>
      </trkpt>
      <trkpt lat="43.35961" lon="6.50707">
        <ele>274</ele>
        <time>2025-11-03T10:48:05Z</time>
      </trkpt>
      <trkpt lat="43.35961" lon="6.50694">
        <ele>272</ele>
        <time>2025-11-03T10:48:14Z</time>
      </trkpt>
      <trkpt lat="43.35955" lon="6.50685">
        <ele>272</ele>
        <time>2025-11-03T10:48:25Z</time>
      </trkpt>
      <trkpt lat="43.35948" lon="6.50677">
        <ele>271</ele>
        <time>2025-11-03T10:48:35Z</time>
      </trkpt>
      <trkpt lat="43.35952" lon="6.50666">
        <ele>270</ele>
        <time>2025-11-03T10:50:43Z</time>
      </trkpt>
      <trkpt lat="43.35949" lon="6.50678">
        <ele>271</ele>
        <time>2025-11-03T10:52:14Z</time>
      </trkpt>
      <trkpt lat="43.35942" lon="6.50687">
        <ele>271</ele>
        <time>2025-11-03T10:52:46Z</time>
      </trkpt>
      <trkpt lat="43.35941" lon="6.50699">
        <ele>273</ele>
        <time>2025-11-03T10:53:00Z</time>
      </trkpt>
      <trkpt lat="43.35942" lon="6.50713">
        <ele>275</ele>
        <time>2025-11-03T10:53:10Z</time>
      </trkpt>
      <trkpt lat="43.35941" lon="6.50725">
        <ele>277</ele>
        <time>2025-11-03T10:53:21Z</time>
      </trkpt>
      <trkpt lat="43.35935" lon="6.50735">
        <ele>278</ele>
        <time>2025-11-03T10:53:30Z</time>
      </trkpt>
      <trkpt lat="43.3593" lon="6.50746">
        <ele>279</ele>
        <time>2025-11-03T10:53:38Z</time>
      </trkpt>
      <trkpt lat="43.35924" lon="6.50757">
        <ele>281</ele>
        <time>2025-11-03T10:53:46Z</time>
      </trkpt>
      <trkpt lat="43.35918" lon="6.50767">
        <ele>282</ele>
        <time>2025-11-03T10:53:55Z</time>
      </trkpt>
      <trkpt lat="43.35911" lon="6.50778">
        <ele>284</ele>
        <time>2025-11-03T10:54:02Z</time>
      </trkpt>
      <trkpt lat="43.35905" lon="6.50792">
        <ele>287</ele>
        <time>2025-11-03T10:54:12Z</time>
      </trkpt>
      <trkpt lat="43.35898" lon="6.50802">
        <ele>290</ele>
        <time>2025-11-03T10:54:17Z</time>
      </trkpt>
      <trkpt lat="43.3589" lon="6.50809">
        <ele>291</ele>
        <time>2025-11-03T10:54:24Z</time>
      </trkpt>
      <trkpt lat="43.3588" lon="6.50811">
        <ele>293</ele>
        <time>2025-11-03T10:54:33Z</time>
      </trkpt>
      <trkpt lat="43.35871" lon="6.50806">
        <ele>293</ele>
        <time>2025-11-03T10:54:43Z</time>
      </trkpt>
      <trkpt lat="43.35863" lon="6.50798">
        <ele>292</ele>
        <time>2025-11-03T10:54:52Z</time>
      </trkpt>
      <trkpt lat="43.35857" lon="6.50788">
        <ele>291</ele>
        <time>2025-11-03T10:55:02Z</time>
      </trkpt>
      <trkpt lat="43.35849" lon="6.50779">
        <ele>290</ele>
        <time>2025-11-03T10:55:11Z</time>
      </trkpt>
      <trkpt lat="43.35842" lon="6.5077">
        <ele>289</ele>
        <time>2025-11-03T10:55:20Z</time>
      </trkpt>
      <trkpt lat="43.35834" lon="6.50764">
        <ele>290</ele>
        <time>2025-11-03T10:55:29Z</time>
      </trkpt>
      <trkpt lat="43.35825" lon="6.50763">
        <ele>291</ele>
        <time>2025-11-03T10:55:38Z</time>
      </trkpt>
      <trkpt lat="43.35816" lon="6.5076">
        <ele>291</ele>
        <time>2025-11-03T10:55:46Z</time>
      </trkpt>
      <trkpt lat="43.35806" lon="6.50762">
        <ele>293</ele>
        <time>2025-11-03T10:55:55Z</time>
      </trkpt>
      <trkpt lat="43.35797" lon="6.50766">
        <ele>295</ele>
        <time>2025-11-03T10:56:04Z</time>
      </trkpt>
      <trkpt lat="43.35787" lon="6.50766">
        <ele>297</ele>
        <time>2025-11-03T10:56:14Z</time>
      </trkpt>
      <trkpt lat="43.35778" lon="6.50765">
        <ele>297</ele>
        <time>2025-11-03T10:56:24Z</time>
      </trkpt>
      <trkpt lat="43.35769" lon="6.50763">
        <ele>298</ele>
        <time>2025-11-03T10:56:32Z</time>
      </trkpt>
      <trkpt lat="43.3576" lon="6.50766">
        <ele>301</ele>
        <time>2025-11-03T10:56:43Z</time>
      </trkpt>
      <trkpt lat="43.35751" lon="6.50767">
        <ele>302</ele>
        <time>2025-11-03T10:56:52Z</time>
      </trkpt>
      <trkpt lat="43.35741" lon="6.5077">
        <ele>304</ele>
        <time>2025-11-03T10:57:02Z</time>
      </trkpt>
      <trkpt lat="43.35732" lon="6.50772">
        <ele>306</ele>
        <time>2025-11-03T10:57:12Z</time>
      </trkpt>
      <trkpt lat="43.35723" lon="6.50769">
        <ele>306</ele>
        <time>2025-11-03T10:57:23Z</time>
      </trkpt>
      <trkpt lat="43.35714" lon="6.50766">
        <ele>306</ele>
        <time>2025-11-03T10:57:33Z</time>
      </trkpt>
      <trkpt lat="43.35705" lon="6.50765">
        <ele>307</ele>
        <time>2025-11-03T10:57:43Z</time>
      </trkpt>
      <trkpt lat="43.35696" lon="6.50762">
        <ele>307</ele>
        <time>2025-11-03T10:57:53Z</time>
      </trkpt>
      <trkpt lat="43.35687" lon="6.50757">
        <ele>306</ele>
        <time>2025-11-03T10:58:03Z</time>
      </trkpt>
      <trkpt lat="43.35682" lon="6.50746">
        <ele>306</ele>
        <time>2025-11-03T10:58:15Z</time>
      </trkpt>
      <trkpt lat="43.35677" lon="6.50735">
        <ele>306</ele>
        <time>2025-11-03T10:58:27Z</time>
      </trkpt>
      <trkpt lat="43.35669" lon="6.5073">
        <ele>306</ele>
        <time>2025-11-03T10:58:41Z</time>
      </trkpt>
      <trkpt lat="43.35659" lon="6.50728">
        <ele>306</ele>
        <time>2025-11-03T10:58:56Z</time>
      </trkpt>
      <trkpt lat="43.3565" lon="6.50731">
        <ele>305</ele>
        <time>2025-11-03T10:59:09Z</time>
      </trkpt>
      <trkpt lat="43.35653" lon="6.50742">
        <ele>305</ele>
        <time>2025-11-03T10:59:24Z</time>
      </trkpt>
      <trkpt lat="43.35655" lon="6.50755">
        <ele>304</ele>
        <time>2025-11-03T10:59:39Z</time>
      </trkpt>
      <trkpt lat="43.3566" lon="6.50766">
        <ele>304</ele>
        <time>2025-11-03T11:00:55Z</time>
      </trkpt>
      <trkpt lat="43.35661" lon="6.50778">
        <ele>303</ele>
        <time>2025-11-03T11:01:08Z</time>
      </trkpt>
      <trkpt lat="43.35662" lon="6.50791">
        <ele>302</ele>
        <time>2025-11-03T11:01:18Z</time>
      </trkpt>
      <trkpt lat="43.35661" lon="6.50804">
        <ele>300</ele>
        <time>2025-11-03T11:01:33Z</time>
      </trkpt>
      <trkpt lat="43.35662" lon="6.50818">
        <ele>299</ele>
        <time>2025-11-03T11:01:44Z</time>
      </trkpt>
      <trkpt lat="43.35665" lon="6.5083">
        <ele>298</ele>
        <time>2025-11-03T11:01:54Z</time>
      </trkpt>
      <trkpt lat="43.3567" lon="6.50841">
        <ele>298</ele>
        <time>2025-11-03T11:02:38Z</time>
      </trkpt>
      <trkpt lat="43.35673" lon="6.50853">
        <ele>299</ele>
        <time>2025-11-03T11:02:48Z</time>
      </trkpt>
      <trkpt lat="43.35677" lon="6.50865">
        <ele>300</ele>
        <time>2025-11-03T11:02:58Z</time>
      </trkpt>
      <trkpt lat="43.35681" lon="6.50877">
        <ele>301</ele>
        <time>2025-11-03T11:03:08Z</time>
      </trkpt>
      <trkpt lat="43.35685" lon="6.50889">
        <ele>302</ele>
        <time>2025-11-03T11:03:19Z</time>
      </trkpt>
      <trkpt lat="43.35689" lon="6.50901">
        <ele>303</ele>
        <time>2025-11-03T11:03:32Z</time>
      </trkpt>
      <trkpt lat="43.35691" lon="6.50913">
        <ele>304</ele>
        <time>2025-11-03T11:03:42Z</time>
      </trkpt>
      <trkpt lat="43.35691" lon="6.50926">
        <ele>304</ele>
        <time>2025-11-03T11:03:58Z</time>
      </trkpt>
      <trkpt lat="43.3569" lon="6.50938">
        <ele>305</ele>
        <time>2025-11-03T11:08:30Z</time>
      </trkpt>
      <trkpt lat="43.35684" lon="6.50929">
        <ele>303</ele>
        <time>2025-11-03T11:20:28Z</time>
      </trkpt>
      <trkpt lat="43.35687" lon="6.50941">
        <ele>305</ele>
        <time>2025-11-03T11:25:37Z</time>
      </trkpt>
      <trkpt lat="43.35695" lon="6.50936">
        <ele>306</ele>
        <time>2025-11-03T11:50:52Z</time>
      </trkpt>
      <trkpt lat="43.35688" lon="6.50928">
        <ele>304</ele>
        <time>2025-11-03T11:52:04Z</time>
      </trkpt>
      <trkpt lat="43.35696" lon="6.50934">
        <ele>306</ele>
        <time>2025-11-03T11:57:50Z</time>
      </trkpt>
      <trkpt lat="43.35696" lon="6.50922">
        <ele>305</ele>
        <time>2025-11-03T12:00:09Z</time>
      </trkpt>
      <trkpt lat="43.35689" lon="6.50931">
        <ele>304</ele>
        <time>2025-11-03T12:01:02Z</time>
      </trkpt>
      <trkpt lat="43.3568" lon="6.50934">
        <ele>302</ele>
        <time>2025-11-03T12:03:56Z</time>
      </trkpt>
      <trkpt lat="43.35671" lon="6.50939">
        <ele>301</ele>
        <time>2025-11-03T12:05:02Z</time>
      </trkpt>
      <trkpt lat="43.35662" lon="6.50944">
        <ele>299</ele>
        <time>2025-11-03T12:05:14Z</time>
      </trkpt>
      <trkpt lat="43.35653" lon="6.5095">
        <ele>299</ele>
        <time>2025-11-03T12:05:27Z</time>
      </trkpt>
      <trkpt lat="43.35645" lon="6.50955">
        <ele>299</ele>
        <time>2025-11-03T12:05:37Z</time>
      </trkpt>
      <trkpt lat="43.35636" lon="6.50959">
        <ele>298</ele>
        <time>2025-11-03T12:05:46Z</time>
      </trkpt>
      <trkpt lat="43.35627" lon="6.50964">
        <ele>297</ele>
        <time>2025-11-03T12:05:53Z</time>
      </trkpt>
      <trkpt lat="43.35618" lon="6.50968">
        <ele>296</ele>
        <time>2025-11-03T12:06:03Z</time>
      </trkpt>
      <trkpt lat="43.35611" lon="6.50975">
        <ele>296</ele>
        <time>2025-11-03T12:06:15Z</time>
      </trkpt>
      <trkpt lat="43.35603" lon="6.50982">
        <ele>296</ele>
        <time>2025-11-03T12:06:29Z</time>
      </trkpt>
      <trkpt lat="43.35594" lon="6.50987">
        <ele>296</ele>
        <time>2025-11-03T12:06:41Z</time>
      </trkpt>
      <trkpt lat="43.35585" lon="6.50987">
        <ele>294</ele>
        <time>2025-11-03T12:06:56Z</time>
      </trkpt>
      <trkpt lat="43.35576" lon="6.50985">
        <ele>291</ele>
        <time>2025-11-03T12:07:45Z</time>
      </trkpt>
      <trkpt lat="43.35566" lon="6.50988">
        <ele>290</ele>
        <time>2025-11-03T12:07:56Z</time>
      </trkpt>
      <trkpt lat="43.35557" lon="6.50993">
        <ele>289</ele>
        <time>2025-11-03T12:08:17Z</time>
      </trkpt>
      <trkpt lat="43.35549" lon="6.51">
        <ele>289</ele>
        <time>2025-11-03T12:08:26Z</time>
      </trkpt>
      <trkpt lat="43.35541" lon="6.51004">
        <ele>288</ele>
        <time>2025-11-03T12:08:34Z</time>
      </trkpt>
      <trkpt lat="43.35532" lon="6.51008">
        <ele>287</ele>
        <time>2025-11-03T12:08:42Z</time>
      </trkpt>
      <trkpt lat="43.35523" lon="6.51012">
        <ele>287</ele>
        <time>2025-11-03T12:08:50Z</time>
      </trkpt>
      <trkpt lat="43.35513" lon="6.51018">
        <ele>286</ele>
        <time>2025-11-03T12:08:56Z</time>
      </trkpt>
      <trkpt lat="43.35503" lon="6.51021">
        <ele>284</ele>
        <time>2025-11-03T12:09:03Z</time>
      </trkpt>
      <trkpt lat="43.35495" lon="6.51027">
        <ele>283</ele>
        <time>2025-11-03T12:09:10Z</time>
      </trkpt>
      <trkpt lat="43.35487" lon="6.51035">
        <ele>280</ele>
        <time>2025-11-03T12:09:18Z</time>
      </trkpt>
      <trkpt lat="43.35485" lon="6.51048">
        <ele>279</ele>
        <time>2025-11-03T12:09:27Z</time>
      </trkpt>
      <trkpt lat="43.35484" lon="6.5106">
        <ele>278</ele>
        <time>2025-11-03T12:09:36Z</time>
      </trkpt>
      <trkpt lat="43.35491" lon="6.51069">
        <ele>280</ele>
        <time>2025-11-03T12:09:46Z</time>
      </trkpt>
      <trkpt lat="43.35497" lon="6.5108">
        <ele>282</ele>
        <time>2025-11-03T12:09:55Z</time>
      </trkpt>
      <trkpt lat="43.35502" lon="6.51091">
        <ele>282</ele>
        <time>2025-11-03T12:10:04Z</time>
      </trkpt>
      <trkpt lat="43.35511" lon="6.511">
        <ele>283</ele>
        <time>2025-11-03T12:10:13Z</time>
      </trkpt>
      <trkpt lat="43.35519" lon="6.51106">
        <ele>285</ele>
        <time>2025-11-03T12:10:21Z</time>
      </trkpt>
      <trkpt lat="43.35529" lon="6.51111">
        <ele>287</ele>
        <time>2025-11-03T12:10:30Z</time>
      </trkpt>
      <trkpt lat="43.35537" lon="6.51119">
        <ele>287</ele>
        <time>2025-11-03T12:10:38Z</time>
      </trkpt>
      <trkpt lat="43.35545" lon="6.51125">
        <ele>288</ele>
        <time>2025-11-03T12:10:48Z</time>
      </trkpt>
      <trkpt lat="43.35553" lon="6.51133">
        <ele>288</ele>
        <time>2025-11-03T12:10:58Z</time>
      </trkpt>
      <trkpt lat="43.35562" lon="6.51136">
        <ele>289</ele>
        <time>2025-11-03T12:11:07Z</time>
      </trkpt>
      <trkpt lat="43.35571" lon="6.51139">
        <ele>289</ele>
        <time>2025-11-03T12:11:15Z</time>
      </trkpt>
      <trkpt lat="43.35566" lon="6.5115">
        <ele>288</ele>
        <time>2025-11-03T12:11:44Z</time>
      </trkpt>
      <trkpt lat="43.35557" lon="6.51154">
        <ele>287</ele>
        <time>2025-11-03T12:11:51Z</time>
      </trkpt>
      <trkpt lat="43.35548" lon="6.5116">
        <ele>285</ele>
        <time>2025-11-03T12:11:57Z</time>
      </trkpt>
      <trkpt lat="43.35539" lon="6.51163">
        <ele>284</ele>
        <time>2025-11-03T12:12:59Z</time>
      </trkpt>
      <trkpt lat="43.35531" lon="6.51166">
        <ele>282</ele>
        <time>2025-11-03T12:13:07Z</time>
      </trkpt>
      <trkpt lat="43.35522" lon="6.5117">
        <ele>281</ele>
        <time>2025-11-03T12:13:17Z</time>
      </trkpt>
      <trkpt lat="43.35512" lon="6.51171">
        <ele>279</ele>
        <time>2025-11-03T12:13:29Z</time>
      </trkpt>
      <trkpt lat="43.35502" lon="6.5117">
        <ele>277</ele>
        <time>2025-11-03T12:13:39Z</time>
      </trkpt>
      <trkpt lat="43.35493" lon="6.51169">
        <ele>275</ele>
        <time>2025-11-03T12:13:48Z</time>
      </trkpt>
      <trkpt lat="43.35484" lon="6.5117">
        <ele>273</ele>
        <time>2025-11-03T12:13:59Z</time>
      </trkpt>
      <trkpt lat="43.35474" lon="6.51176">
        <ele>272</ele>
        <time>2025-11-03T12:14:10Z</time>
      </trkpt>
      <trkpt lat="43.35467" lon="6.51184">
        <ele>274</ele>
        <time>2025-11-03T12:14:21Z</time>
      </trkpt>
      <trkpt lat="43.35459" lon="6.51192">
        <ele>276</ele>
        <time>2025-11-03T12:14:30Z</time>
      </trkpt>
      <trkpt lat="43.3545" lon="6.5119">
        <ele>276</ele>
        <time>2025-11-03T12:14:45Z</time>
      </trkpt>
      <trkpt lat="43.35443" lon="6.5118">
        <ele>274</ele>
        <time>2025-11-03T12:14:57Z</time>
      </trkpt>
      <trkpt lat="43.3544" lon="6.51168">
        <ele>271</ele>
        <time>2025-11-03T12:15:09Z</time>
      </trkpt>
      <trkpt lat="43.35436" lon="6.51157">
        <ele>270</ele>
        <time>2025-11-03T12:15:20Z</time>
      </trkpt>
      <trkpt lat="43.35429" lon="6.51147">
        <ele>268</ele>
        <time>2025-11-03T12:15:31Z</time>
      </trkpt>
      <trkpt lat="43.35421" lon="6.51141">
        <ele>267</ele>
        <time>2025-11-03T12:15:43Z</time>
      </trkpt>
      <trkpt lat="43.35413" lon="6.51135">
        <ele>266</ele>
        <time>2025-11-03T12:15:55Z</time>
      </trkpt>
      <trkpt lat="43.35404" lon="6.51129">
        <ele>266</ele>
        <time>2025-11-03T12:16:05Z</time>
      </trkpt>
      <trkpt lat="43.35398" lon="6.5112">
        <ele>265</ele>
        <time>2025-11-03T12:16:14Z</time>
      </trkpt>
      <trkpt lat="43.35392" lon="6.5111">
        <ele>264</ele>
        <time>2025-11-03T12:16:23Z</time>
      </trkpt>
      <trkpt lat="43.35386" lon="6.511">
        <ele>264</ele>
        <time>2025-11-03T12:16:34Z</time>
      </trkpt>
      <trkpt lat="43.35381" lon="6.51089">
        <ele>263</ele>
        <time>2025-11-03T12:16:43Z</time>
      </trkpt>
      <trkpt lat="43.35376" lon="6.5108">
        <ele>263</ele>
        <time>2025-11-03T12:16:52Z</time>
      </trkpt>
      <trkpt lat="43.35371" lon="6.51068">
        <ele>261</ele>
        <time>2025-11-03T12:17:01Z</time>
      </trkpt>
      <trkpt lat="43.35365" lon="6.51058">
        <ele>260</ele>
        <time>2025-11-03T12:17:12Z</time>
      </trkpt>
      <trkpt lat="43.35357" lon="6.5105">
        <ele>259</ele>
        <time>2025-11-03T12:17:27Z</time>
      </trkpt>
      <trkpt lat="43.3535" lon="6.51043">
        <ele>259</ele>
        <time>2025-11-03T12:17:48Z</time>
      </trkpt>
      <trkpt lat="43.35341" lon="6.51038">
        <ele>259</ele>
        <time>2025-11-03T12:17:57Z</time>
      </trkpt>
      <trkpt lat="43.35331" lon="6.51035">
        <ele>261</ele>
        <time>2025-11-03T12:18:07Z</time>
      </trkpt>
      <trkpt lat="43.35322" lon="6.51033">
        <ele>263</ele>
        <time>2025-11-03T12:18:17Z</time>
      </trkpt>
      <trkpt lat="43.35313" lon="6.51029">
        <ele>265</ele>
        <time>2025-11-03T12:18:25Z</time>
      </trkpt>
      <trkpt lat="43.35304" lon="6.51024">
        <ele>265</ele>
        <time>2025-11-03T12:18:34Z</time>
      </trkpt>
      <trkpt lat="43.35296" lon="6.51018">
        <ele>265</ele>
        <time>2025-11-03T12:18:42Z</time>
      </trkpt>
      <trkpt lat="43.35289" lon="6.51012">
        <ele>264</ele>
        <time>2025-11-03T12:18:50Z</time>
      </trkpt>
      <trkpt lat="43.35281" lon="6.51005">
        <ele>263</ele>
        <time>2025-11-03T12:18:59Z</time>
      </trkpt>
      <trkpt lat="43.35273" lon="6.50999">
        <ele>262</ele>
        <time>2025-11-03T12:19:08Z</time>
      </trkpt>
      <trkpt lat="43.35263" lon="6.50998">
        <ele>263</ele>
        <time>2025-11-03T12:19:18Z</time>
      </trkpt>
      <trkpt lat="43.35254" lon="6.50995">
        <ele>264</ele>
        <time>2025-11-03T12:19:26Z</time>
      </trkpt>
      <trkpt lat="43.35244" lon="6.50995">
        <ele>265</ele>
        <time>2025-11-03T12:19:35Z</time>
      </trkpt>
      <trkpt lat="43.35235" lon="6.50994">
        <ele>264</ele>
        <time>2025-11-03T12:19:46Z</time>
      </trkpt>
      <trkpt lat="43.35226" lon="6.50993">
        <ele>263</ele>
        <time>2025-11-03T12:19:54Z</time>
      </trkpt>
      <trkpt lat="43.35216" lon="6.50993">
        <ele>262</ele>
        <time>2025-11-03T12:20:03Z</time>
      </trkpt>
      <trkpt lat="43.35206" lon="6.50992">
        <ele>260</ele>
        <time>2025-11-03T12:20:12Z</time>
      </trkpt>
      <trkpt lat="43.35195" lon="6.50993">
        <ele>258</ele>
        <time>2025-11-03T12:20:21Z</time>
      </trkpt>
      <trkpt lat="43.35186" lon="6.50994">
        <ele>256</ele>
        <time>2025-11-03T12:20:31Z</time>
      </trkpt>
      <trkpt lat="43.35179" lon="6.51003">
        <ele>256</ele>
        <time>2025-11-03T12:20:42Z</time>
      </trkpt>
      <trkpt lat="43.35178" lon="6.51015">
        <ele>257</ele>
        <time>2025-11-03T12:20:52Z</time>
      </trkpt>
      <trkpt lat="43.35182" lon="6.51027">
        <ele>260</ele>
        <time>2025-11-03T12:21:01Z</time>
      </trkpt>
      <trkpt lat="43.35184" lon="6.5104">
        <ele>261</ele>
        <time>2025-11-03T12:21:11Z</time>
      </trkpt>
      <trkpt lat="43.35186" lon="6.51052">
        <ele>263</ele>
        <time>2025-11-03T12:21:22Z</time>
      </trkpt>
      <trkpt lat="43.35188" lon="6.51066">
        <ele>264</ele>
        <time>2025-11-03T12:21:32Z</time>
      </trkpt>
      <trkpt lat="43.35188" lon="6.51078">
        <ele>263</ele>
        <time>2025-11-03T12:21:41Z</time>
      </trkpt>
      <trkpt lat="43.35191" lon="6.5109">
        <ele>265</ele>
        <time>2025-11-03T12:21:50Z</time>
      </trkpt>
      <trkpt lat="43.35194" lon="6.51102">
        <ele>265</ele>
        <time>2025-11-03T12:22:00Z</time>
      </trkpt>
      <trkpt lat="43.35192" lon="6.51116">
        <ele>266</ele>
        <time>2025-11-03T12:22:08Z</time>
      </trkpt>
      <trkpt lat="43.35184" lon="6.51123">
        <ele>264</ele>
        <time>2025-11-03T12:22:21Z</time>
      </trkpt>
      <trkpt lat="43.35175" lon="6.51125">
        <ele>262</ele>
        <time>2025-11-03T12:22:31Z</time>
      </trkpt>
      <trkpt lat="43.35164" lon="6.51127">
        <ele>260</ele>
        <time>2025-11-03T12:22:39Z</time>
      </trkpt>
      <trkpt lat="43.35155" lon="6.51125">
        <ele>258</ele>
        <time>2025-11-03T12:22:49Z</time>
      </trkpt>
      <trkpt lat="43.35146" lon="6.51126">
        <ele>257</ele>
        <time>2025-11-03T12:23:04Z</time>
      </trkpt>
      <trkpt lat="43.35137" lon="6.51122">
        <ele>254</ele>
        <time>2025-11-03T12:23:11Z</time>
      </trkpt>
      <trkpt lat="43.35128" lon="6.51122">
        <ele>253</ele>
        <time>2025-11-03T12:23:20Z</time>
      </trkpt>
      <trkpt lat="43.35119" lon="6.51125">
        <ele>253</ele>
        <time>2025-11-03T12:23:28Z</time>
      </trkpt>
      <trkpt lat="43.35111" lon="6.51132">
        <ele>253</ele>
        <time>2025-11-03T12:23:38Z</time>
      </trkpt>
      <trkpt lat="43.35106" lon="6.51142">
        <ele>255</ele>
        <time>2025-11-03T12:23:46Z</time>
      </trkpt>
      <trkpt lat="43.35107" lon="6.51155">
        <ele>259</ele>
        <time>2025-11-03T12:23:55Z</time>
      </trkpt>
      <trkpt lat="43.35112" lon="6.51165">
        <ele>261</ele>
        <time>2025-11-03T12:24:04Z</time>
      </trkpt>
      <trkpt lat="43.35115" lon="6.51177">
        <ele>264</ele>
        <time>2025-11-03T12:24:15Z</time>
      </trkpt>
      <trkpt lat="43.35115" lon="6.5119">
        <ele>266</ele>
        <time>2025-11-03T12:24:26Z</time>
      </trkpt>
      <trkpt lat="43.35116" lon="6.51203">
        <ele>268</ele>
        <time>2025-11-03T12:24:37Z</time>
      </trkpt>
      <trkpt lat="43.35107" lon="6.51201">
        <ele>268</ele>
        <time>2025-11-03T12:24:55Z</time>
      </trkpt>
      <trkpt lat="43.35099" lon="6.51192">
        <ele>268</ele>
        <time>2025-11-03T12:25:05Z</time>
      </trkpt>
      <trkpt lat="43.35091" lon="6.51187">
        <ele>268</ele>
        <time>2025-11-03T12:25:19Z</time>
      </trkpt>
      <trkpt lat="43.35082" lon="6.51183">
        <ele>268</ele>
        <time>2025-11-03T12:25:28Z</time>
      </trkpt>
      <trkpt lat="43.35073" lon="6.51177">
        <ele>268</ele>
        <time>2025-11-03T12:25:39Z</time>
      </trkpt>
      <trkpt lat="43.35065" lon="6.5117">
        <ele>268</ele>
        <time>2025-11-03T12:25:48Z</time>
      </trkpt>
      <trkpt lat="43.35058" lon="6.51161">
        <ele>267</ele>
        <time>2025-11-03T12:25:57Z</time>
      </trkpt>
      <trkpt lat="43.3505" lon="6.51154">
        <ele>267</ele>
        <time>2025-11-03T12:26:06Z</time>
      </trkpt>
      <trkpt lat="43.35043" lon="6.51146">
        <ele>267</ele>
        <time>2025-11-03T12:26:16Z</time>
      </trkpt>
      <trkpt lat="43.35037" lon="6.51137">
        <ele>267</ele>
        <time>2025-11-03T12:26:26Z</time>
      </trkpt>
      <trkpt lat="43.35033" lon="6.51125">
        <ele>267</ele>
        <time>2025-11-03T12:26:39Z</time>
      </trkpt>
      <trkpt lat="43.35026" lon="6.51116">
        <ele>269</ele>
        <time>2025-11-03T12:26:47Z</time>
      </trkpt>
      <trkpt lat="43.35023" lon="6.51104">
        <ele>270</ele>
        <time>2025-11-03T12:26:57Z</time>
      </trkpt>
      <trkpt lat="43.35024" lon="6.51091">
        <ele>269</ele>
        <time>2025-11-03T12:27:08Z</time>
      </trkpt>
      <trkpt lat="43.35026" lon="6.51078">
        <ele>268</ele>
        <time>2025-11-03T12:27:17Z</time>
      </trkpt>
      <trkpt lat="43.35021" lon="6.51066">
        <ele>269</ele>
        <time>2025-11-03T12:27:26Z</time>
      </trkpt>
      <trkpt lat="43.35018" lon="6.51053">
        <ele>269</ele>
        <time>2025-11-03T12:27:35Z</time>
      </trkpt>
      <trkpt lat="43.35014" lon="6.51042">
        <ele>269</ele>
        <time>2025-11-03T12:27:44Z</time>
      </trkpt>
      <trkpt lat="43.35007" lon="6.51034">
        <ele>270</ele>
        <time>2025-11-03T12:27:53Z</time>
      </trkpt>
      <trkpt lat="43.34999" lon="6.51026">
        <ele>271</ele>
        <time>2025-11-03T12:28:04Z</time>
      </trkpt>
      <trkpt lat="43.34992" lon="6.51015">
        <ele>271</ele>
        <time>2025-11-03T12:28:13Z</time>
      </trkpt>
      <trkpt lat="43.34987" lon="6.51006">
        <ele>270</ele>
        <time>2025-11-03T12:28:22Z</time>
      </trkpt>
      <trkpt lat="43.3498" lon="6.50996">
        <ele>270</ele>
        <time>2025-11-03T12:28:32Z</time>
      </trkpt>
      <trkpt lat="43.34973" lon="6.50988">
        <ele>269</ele>
        <time>2025-11-03T12:28:44Z</time>
      </trkpt>
      <trkpt lat="43.34964" lon="6.50981">
        <ele>269</ele>
        <time>2025-11-03T12:28:54Z</time>
      </trkpt>
      <trkpt lat="43.34955" lon="6.5098">
        <ele>270</ele>
        <time>2025-11-03T12:29:11Z</time>
      </trkpt>
      <trkpt lat="43.34946" lon="6.5098">
        <ele>271</ele>
        <time>2025-11-03T12:29:28Z</time>
      </trkpt>
      <trkpt lat="43.34936" lon="6.50981">
        <ele>271</ele>
        <time>2025-11-03T12:29:52Z</time>
      </trkpt>
      <trkpt lat="43.34927" lon="6.50982">
        <ele>271</ele>
        <time>2025-11-03T12:30:15Z</time>
      </trkpt>
      <trkpt lat="43.34917" lon="6.50981">
        <ele>270</ele>
        <time>2025-11-03T12:30:55Z</time>
      </trkpt>
      <trkpt lat="43.34908" lon="6.50983">
        <ele>270</ele>
        <time>2025-11-03T12:31:10Z</time>
      </trkpt>
      <trkpt lat="43.34899" lon="6.50986">
        <ele>270</ele>
        <time>2025-11-03T12:31:21Z</time>
      </trkpt>
      <trkpt lat="43.34889" lon="6.50986">
        <ele>270</ele>
        <time>2025-11-03T12:31:37Z</time>
      </trkpt>
      <trkpt lat="43.34882" lon="6.50993">
        <ele>269</ele>
        <time>2025-11-03T12:31:50Z</time>
      </trkpt>
      <trkpt lat="43.34876" lon="6.51003">
        <ele>270</ele>
        <time>2025-11-03T12:32:19Z</time>
      </trkpt>
      <trkpt lat="43.34873" lon="6.51015">
        <ele>271</ele>
        <time>2025-11-03T12:32:44Z</time>
      </trkpt>
      <trkpt lat="43.34868" lon="6.51026">
        <ele>272</ele>
        <time>2025-11-03T12:33:01Z</time>
      </trkpt>
      <trkpt lat="43.34865" lon="6.51039">
        <ele>273</ele>
        <time>2025-11-03T12:33:10Z</time>
      </trkpt>
      <trkpt lat="43.34864" lon="6.51052">
        <ele>275</ele>
        <time>2025-11-03T12:33:21Z</time>
      </trkpt>
      <trkpt lat="43.34863" lon="6.51065">
        <ele>276</ele>
        <time>2025-11-03T12:33:33Z</time>
      </trkpt>
      <trkpt lat="43.34864" lon="6.51077">
        <ele>278</ele>
        <time>2025-11-03T12:33:45Z</time>
      </trkpt>
      <trkpt lat="43.34868" lon="6.5109">
        <ele>279</ele>
        <time>2025-11-03T12:33:57Z</time>
      </trkpt>
      <trkpt lat="43.34871" lon="6.51102">
        <ele>281</ele>
        <time>2025-11-03T12:34:07Z</time>
      </trkpt>
      <trkpt lat="43.34869" lon="6.51114">
        <ele>282</ele>
        <time>2025-11-03T12:34:18Z</time>
      </trkpt>
      <trkpt lat="43.34861" lon="6.51121">
        <ele>282</ele>
        <time>2025-11-03T12:34:29Z</time>
      </trkpt>
      <trkpt lat="43.34853" lon="6.51129">
        <ele>282</ele>
        <time>2025-11-03T12:34:40Z</time>
      </trkpt>
      <trkpt lat="43.34846" lon="6.51138">
        <ele>282</ele>
        <time>2025-11-03T12:34:52Z</time>
      </trkpt>
      <trkpt lat="43.34838" lon="6.51144">
        <ele>282</ele>
        <time>2025-11-03T12:35:04Z</time>
      </trkpt>
      <trkpt lat="43.3483" lon="6.51152">
        <ele>282</ele>
        <time>2025-11-03T12:35:11Z</time>
      </trkpt>
      <trkpt lat="43.34823" lon="6.51159">
        <ele>282</ele>
        <time>2025-11-03T12:35:19Z</time>
      </trkpt>
      <trkpt lat="43.34816" lon="6.51167">
        <ele>283</ele>
        <time>2025-11-03T12:35:27Z</time>
      </trkpt>
      <trkpt lat="43.3481" lon="6.51177">
        <ele>285</ele>
        <time>2025-11-03T12:35:37Z</time>
      </trkpt>
      <trkpt lat="43.34803" lon="6.51186">
        <ele>286</ele>
        <time>2025-11-03T12:35:47Z</time>
      </trkpt>
      <trkpt lat="43.34798" lon="6.51197">
        <ele>287</ele>
        <time>2025-11-03T12:35:57Z</time>
      </trkpt>
      <trkpt lat="43.34792" lon="6.51207">
        <ele>289</ele>
        <time>2025-11-03T12:36:07Z</time>
      </trkpt>
      <trkpt lat="43.34788" lon="6.51219">
        <ele>291</ele>
        <time>2025-11-03T12:36:17Z</time>
      </trkpt>
      <trkpt lat="43.34783" lon="6.5123">
        <ele>293</ele>
        <time>2025-11-03T12:36:27Z</time>
      </trkpt>
      <trkpt lat="43.34779" lon="6.51242">
        <ele>294</ele>
        <time>2025-11-03T12:36:37Z</time>
      </trkpt>
      <trkpt lat="43.34777" lon="6.51255">
        <ele>296</ele>
        <time>2025-11-03T12:36:48Z</time>
      </trkpt>
      <trkpt lat="43.34774" lon="6.51268">
        <ele>299</ele>
        <time>2025-11-03T12:36:59Z</time>
      </trkpt>
      <trkpt lat="43.34772" lon="6.5128">
        <ele>301</ele>
        <time>2025-11-03T12:37:09Z</time>
      </trkpt>
      <trkpt lat="43.34768" lon="6.51291">
        <ele>302</ele>
        <time>2025-11-03T12:37:19Z</time>
      </trkpt>
      <trkpt lat="43.34761" lon="6.51302">
        <ele>302</ele>
        <time>2025-11-03T12:37:30Z</time>
      </trkpt>
      <trkpt lat="43.34752" lon="6.51304">
        <ele>302</ele>
        <time>2025-11-03T12:37:41Z</time>
      </trkpt>
      <trkpt lat="43.34743" lon="6.51301">
        <ele>300</ele>
        <time>2025-11-03T12:37:52Z</time>
      </trkpt>
      <trkpt lat="43.34733" lon="6.51298">
        <ele>299</ele>
        <time>2025-11-03T12:38:03Z</time>
      </trkpt>
      <trkpt lat="43.34725" lon="6.51303">
        <ele>299</ele>
        <time>2025-11-03T12:38:16Z</time>
      </trkpt>
      <trkpt lat="43.34717" lon="6.51312">
        <ele>301</ele>
        <time>2025-11-03T12:38:27Z</time>
      </trkpt>
      <trkpt lat="43.34709" lon="6.51319">
        <ele>303</ele>
        <time>2025-11-03T12:38:36Z</time>
      </trkpt>
      <trkpt lat="43.347" lon="6.51324">
        <ele>304</ele>
        <time>2025-11-03T12:38:46Z</time>
      </trkpt>
      <trkpt lat="43.34691" lon="6.51327">
        <ele>305</ele>
        <time>2025-11-03T12:38:56Z</time>
      </trkpt>
      <trkpt lat="43.34682" lon="6.51333">
        <ele>307</ele>
        <time>2025-11-03T12:39:07Z</time>
      </trkpt>
      <trkpt lat="43.34677" lon="6.51343">
        <ele>309</ele>
        <time>2025-11-03T12:39:21Z</time>
      </trkpt>
      <trkpt lat="43.34671" lon="6.51353">
        <ele>311</ele>
        <time>2025-11-03T12:39:32Z</time>
      </trkpt>
      <trkpt lat="43.34661" lon="6.51351">
        <ele>312</ele>
        <time>2025-11-03T12:39:46Z</time>
      </trkpt>
      <trkpt lat="43.34653" lon="6.51343">
        <ele>313</ele>
        <time>2025-11-03T12:39:57Z</time>
      </trkpt>
      <trkpt lat="43.34644" lon="6.51336">
        <ele>314</ele>
        <time>2025-11-03T12:40:08Z</time>
      </trkpt>
      <trkpt lat="43.34638" lon="6.51325">
        <ele>314</ele>
        <time>2025-11-03T12:40:19Z</time>
      </trkpt>
      <trkpt lat="43.34636" lon="6.51313">
        <ele>313</ele>
        <time>2025-11-03T12:40:32Z</time>
      </trkpt>
      <trkpt lat="43.34634" lon="6.513">
        <ele>313</ele>
        <time>2025-11-03T12:40:42Z</time>
      </trkpt>
      <trkpt lat="43.34632" lon="6.51288">
        <ele>311</ele>
        <time>2025-11-03T12:40:52Z</time>
      </trkpt>
      <trkpt lat="43.34629" lon="6.51276">
        <ele>310</ele>
        <time>2025-11-03T12:41:07Z</time>
      </trkpt>
      <trkpt lat="43.34623" lon="6.51266">
        <ele>310</ele>
        <time>2025-11-03T12:41:19Z</time>
      </trkpt>
      <trkpt lat="43.34616" lon="6.51258">
        <ele>311</ele>
        <time>2025-11-03T12:41:31Z</time>
      </trkpt>
      <trkpt lat="43.34608" lon="6.51252">
        <ele>312</ele>
        <time>2025-11-03T12:41:40Z</time>
      </trkpt>
      <trkpt lat="43.34599" lon="6.51247">
        <ele>314</ele>
        <time>2025-11-03T12:41:49Z</time>
      </trkpt>
      <trkpt lat="43.3459" lon="6.51244">
        <ele>317</ele>
        <time>2025-11-03T12:42:02Z</time>
      </trkpt>
      <trkpt lat="43.34581" lon="6.51235">
        <ele>317</ele>
        <time>2025-11-03T12:42:14Z</time>
      </trkpt>
      <trkpt lat="43.34574" lon="6.51227">
        <ele>317</ele>
        <time>2025-11-03T12:42:25Z</time>
      </trkpt>
      <trkpt lat="43.34565" lon="6.51224">
        <ele>319</ele>
        <time>2025-11-03T12:42:38Z</time>
      </trkpt>
      <trkpt lat="43.34554" lon="6.51217">
        <ele>320</ele>
        <time>2025-11-03T12:42:52Z</time>
      </trkpt>
      <trkpt lat="43.34542" lon="6.51212">
        <ele>322</ele>
        <time>2025-11-03T12:43:04Z</time>
      </trkpt>
      <trkpt lat="43.34537" lon="6.51199">
        <ele>321</ele>
        <time>2025-11-03T12:43:16Z</time>
      </trkpt>
      <trkpt lat="43.34529" lon="6.51186">
        <ele>321</ele>
        <time>2025-11-03T12:43:28Z</time>
      </trkpt>
      <trkpt lat="43.34527" lon="6.51174">
        <ele>320</ele>
        <time>2025-11-03T12:43:42Z</time>
      </trkpt>
      <trkpt lat="43.34524" lon="6.51162">
        <ele>320</ele>
        <time>2025-11-03T12:43:52Z</time>
      </trkpt>
      <trkpt lat="43.34519" lon="6.51151">
        <ele>323</ele>
        <time>2025-11-03T12:44:02Z</time>
      </trkpt>
      <trkpt lat="43.34518" lon="6.51139">
        <ele>323</ele>
        <time>2025-11-03T12:44:10Z</time>
      </trkpt>
      <trkpt lat="43.34516" lon="6.51126">
        <ele>324</ele>
        <time>2025-11-03T12:44:21Z</time>
      </trkpt>
      <trkpt lat="43.34514" lon="6.51113">
        <ele>326</ele>
        <time>2025-11-03T12:46:53Z</time>
      </trkpt>
      <trkpt lat="43.34517" lon="6.51101">
        <ele>324</ele>
        <time>2025-11-03T12:47:04Z</time>
      </trkpt>
      <trkpt lat="43.34521" lon="6.5109">
        <ele>321</ele>
        <time>2025-11-03T12:47:12Z</time>
      </trkpt>
      <trkpt lat="43.34523" lon="6.51077">
        <ele>320</ele>
        <time>2025-11-03T12:47:19Z</time>
      </trkpt>
      <trkpt lat="43.34525" lon="6.51064">
        <ele>318</ele>
        <time>2025-11-03T12:47:29Z</time>
      </trkpt>
      <trkpt lat="43.34525" lon="6.51051">
        <ele>318</ele>
        <time>2025-11-03T12:47:39Z</time>
      </trkpt>
      <trkpt lat="43.3452" lon="6.5104">
        <ele>320</ele>
        <time>2025-11-03T12:47:50Z</time>
      </trkpt>
      <trkpt lat="43.34518" lon="6.51028">
        <ele>319</ele>
        <time>2025-11-03T12:48:01Z</time>
      </trkpt>
      <trkpt lat="43.34512" lon="6.51019">
        <ele>321</ele>
        <time>2025-11-03T12:48:12Z</time>
      </trkpt>
      <trkpt lat="43.34506" lon="6.51009">
        <ele>322</ele>
        <time>2025-11-03T12:48:22Z</time>
      </trkpt>
      <trkpt lat="43.345" lon="6.51">
        <ele>323</ele>
        <time>2025-11-03T12:48:49Z</time>
      </trkpt>
      <trkpt lat="43.34491" lon="6.50994">
        <ele>326</ele>
        <time>2025-11-03T12:49:00Z</time>
      </trkpt>
      <trkpt lat="43.34482" lon="6.50985">
        <ele>328</ele>
        <time>2025-11-03T12:49:24Z</time>
      </trkpt>
      <trkpt lat="43.34474" lon="6.50981">
        <ele>330</ele>
        <time>2025-11-03T12:49:32Z</time>
      </trkpt>
      <trkpt lat="43.34482" lon="6.50976">
        <ele>325</ele>
        <time>2025-11-03T12:50:45Z</time>
      </trkpt>
      <trkpt lat="43.34473" lon="6.50976">
        <ele>328</ele>
        <time>2025-11-03T12:51:37Z</time>
      </trkpt>
      <trkpt lat="43.34484" lon="6.50974">
        <ele>324</ele>
        <time>2025-11-03T12:52:15Z</time>
      </trkpt>
      <trkpt lat="43.34474" lon="6.50977">
        <ele>328</ele>
        <time>2025-11-03T12:55:36Z</time>
      </trkpt>
      <trkpt lat="43.34465" lon="6.50976">
        <ele>331</ele>
        <time>2025-11-03T12:55:48Z</time>
      </trkpt>
      <trkpt lat="43.34456" lon="6.5097">
        <ele>332</ele>
        <time>2025-11-03T12:56:02Z</time>
      </trkpt>
      <trkpt lat="43.3445" lon="6.50956">
        <ele>329</ele>
        <time>2025-11-03T12:56:19Z</time>
      </trkpt>
      <trkpt lat="43.34457" lon="6.50947">
        <ele>324</ele>
        <time>2025-11-03T12:59:03Z</time>
      </trkpt>
      <trkpt lat="43.34448" lon="6.5095">
        <ele>328</ele>
        <time>2025-11-03T13:01:55Z</time>
      </trkpt>
      <trkpt lat="43.34439" lon="6.50944">
        <ele>330</ele>
        <time>2025-11-03T13:02:45Z</time>
      </trkpt>
      <trkpt lat="43.34431" lon="6.50939">
        <ele>332</ele>
        <time>2025-11-03T13:03:03Z</time>
      </trkpt>
      <trkpt lat="43.34421" lon="6.50935">
        <ele>335</ele>
        <time>2025-11-03T13:03:16Z</time>
      </trkpt>
      <trkpt lat="43.34416" lon="6.50924">
        <ele>335</ele>
        <time>2025-11-03T13:04:52Z</time>
      </trkpt>
      <trkpt lat="43.34409" lon="6.50916">
        <ele>337</ele>
        <time>2025-11-03T13:05:19Z</time>
      </trkpt>
      <trkpt lat="43.34402" lon="6.50908">
        <ele>338</ele>
        <time>2025-11-03T13:05:29Z</time>
      </trkpt>
      <trkpt lat="43.34394" lon="6.509">
        <ele>340</ele>
        <time>2025-11-03T13:05:38Z</time>
      </trkpt>
      <trkpt lat="43.34391" lon="6.50888">
        <ele>339</ele>
        <time>2025-11-03T13:05:54Z</time>
      </trkpt>
      <trkpt lat="43.34391" lon="6.50875">
        <ele>339</ele>
        <time>2025-11-03T13:06:05Z</time>
      </trkpt>
      <trkpt lat="43.34392" lon="6.50862">
        <ele>338</ele>
        <time>2025-11-03T13:06:14Z</time>
      </trkpt>
      <trkpt lat="43.34394" lon="6.50849">
        <ele>336</ele>
        <time>2025-11-03T13:06:23Z</time>
      </trkpt>
      <trkpt lat="43.34392" lon="6.50836">
        <ele>336</ele>
        <time>2025-11-03T13:06:33Z</time>
      </trkpt>
      <trkpt lat="43.34387" lon="6.50825">
        <ele>337</ele>
        <time>2025-11-03T13:06:48Z</time>
      </trkpt>
      <trkpt lat="43.34378" lon="6.50821">
        <ele>339</ele>
        <time>2025-11-03T13:06:58Z</time>
      </trkpt>
      <trkpt lat="43.34369" lon="6.50819">
        <ele>342</ele>
        <time>2025-11-03T13:07:11Z</time>
      </trkpt>
      <trkpt lat="43.3436" lon="6.50817">
        <ele>344</ele>
        <time>2025-11-03T13:07:22Z</time>
      </trkpt>
      <trkpt lat="43.34351" lon="6.50816">
        <ele>347</ele>
        <time>2025-11-03T13:07:37Z</time>
      </trkpt>
      <trkpt lat="43.34342" lon="6.5081">
        <ele>349</ele>
        <time>2025-11-03T13:07:45Z</time>
      </trkpt>
      <trkpt lat="43.34337" lon="6.508">
        <ele>350</ele>
        <time>2025-11-03T13:07:57Z</time>
      </trkpt>
      <trkpt lat="43.34336" lon="6.50786">
        <ele>350</ele>
        <time>2025-11-03T13:08:08Z</time>
      </trkpt>
      <trkpt lat="43.34336" lon="6.50772">
        <ele>350</ele>
        <time>2025-11-03T13:08:18Z</time>
      </trkpt>
      <trkpt lat="43.34339" lon="6.50759">
        <ele>348</ele>
        <time>2025-11-03T13:08:28Z</time>
      </trkpt>
      <trkpt lat="43.34343" lon="6.50748">
        <ele>346</ele>
        <time>2025-11-03T13:08:39Z</time>
      </trkpt>
      <trkpt lat="43.34347" lon="6.50737">
        <ele>343</ele>
        <time>2025-11-03T13:08:48Z</time>
      </trkpt>
      <trkpt lat="43.34347" lon="6.50722">
        <ele>342</ele>
        <time>2025-11-03T13:08:59Z</time>
      </trkpt>
      <trkpt lat="43.34348" lon="6.50709">
        <ele>342</ele>
        <time>2025-11-03T13:09:07Z</time>
      </trkpt>
      <trkpt lat="43.34346" lon="6.50696">
        <ele>343</ele>
        <time>2025-11-03T13:09:18Z</time>
      </trkpt>
      <trkpt lat="43.34341" lon="6.50685">
        <ele>345</ele>
        <time>2025-11-03T13:09:27Z</time>
      </trkpt>
      <trkpt lat="43.34333" lon="6.50677">
        <ele>347</ele>
        <time>2025-11-03T13:09:36Z</time>
      </trkpt>
      <trkpt lat="43.34324" lon="6.50675">
        <ele>347</ele>
        <time>2025-11-03T13:09:58Z</time>
      </trkpt>
      <trkpt lat="43.34315" lon="6.50678">
        <ele>349</ele>
        <time>2025-11-03T13:10:10Z</time>
      </trkpt>
      <trkpt lat="43.34306" lon="6.5068">
        <ele>350</ele>
        <time>2025-11-03T13:10:22Z</time>
      </trkpt>
      <trkpt lat="43.34297" lon="6.50683">
        <ele>351</ele>
        <time>2025-11-03T13:10:33Z</time>
      </trkpt>
      <trkpt lat="43.34288" lon="6.50681">
        <ele>350</ele>
        <time>2025-11-03T13:11:11Z</time>
      </trkpt>
      <trkpt lat="43.34279" lon="6.50684">
        <ele>351</ele>
        <time>2025-11-03T13:14:50Z</time>
      </trkpt>
      <trkpt lat="43.3427" lon="6.50687">
        <ele>351</ele>
        <time>2025-11-03T13:15:05Z</time>
      </trkpt>
      <trkpt lat="43.3426" lon="6.50689">
        <ele>352</ele>
        <time>2025-11-03T13:15:19Z</time>
      </trkpt>
      <trkpt lat="43.34252" lon="6.50696">
        <ele>353</ele>
        <time>2025-11-03T13:15:32Z</time>
      </trkpt>
      <trkpt lat="43.34245" lon="6.50703">
        <ele>355</ele>
        <time>2025-11-03T13:15:42Z</time>
      </trkpt>
      <trkpt lat="43.34237" lon="6.5071">
        <ele>356</ele>
        <time>2025-11-03T13:15:50Z</time>
      </trkpt>
      <trkpt lat="43.34228" lon="6.50714">
        <ele>357</ele>
        <time>2025-11-03T13:15:59Z</time>
      </trkpt>
      <trkpt lat="43.34219" lon="6.50713">
        <ele>357</ele>
        <time>2025-11-03T13:16:08Z</time>
      </trkpt>
      <trkpt lat="43.3421" lon="6.50709">
        <ele>356</ele>
        <time>2025-11-03T13:16:16Z</time>
      </trkpt>
      <trkpt lat="43.34202" lon="6.50705">
        <ele>355</ele>
        <time>2025-11-03T13:16:23Z</time>
      </trkpt>
      <trkpt lat="43.34193" lon="6.50699">
        <ele>355</ele>
        <time>2025-11-03T13:16:31Z</time>
      </trkpt>
      <trkpt lat="43.34184" lon="6.50692">
        <ele>354</ele>
        <time>2025-11-03T13:16:40Z</time>
      </trkpt>
      <trkpt lat="43.34175" lon="6.50688">
        <ele>355</ele>
        <time>2025-11-03T13:16:48Z</time>
      </trkpt>
      <trkpt lat="43.34166" lon="6.50684">
        <ele>356</ele>
        <time>2025-11-03T13:16:57Z</time>
      </trkpt>
      <trkpt lat="43.34156" lon="6.50682">
        <ele>355</ele>
        <time>2025-11-03T13:17:06Z</time>
      </trkpt>
      <trkpt lat="43.34147" lon="6.50684">
        <ele>355</ele>
        <time>2025-11-03T13:17:16Z</time>
      </trkpt>
      <trkpt lat="43.34143" lon="6.50696">
        <ele>355</ele>
        <time>2025-11-03T13:17:33Z</time>
      </trkpt>
      <trkpt lat="43.34144" lon="6.50683">
        <ele>355</ele>
        <time>2025-11-03T13:18:14Z</time>
      </trkpt>
      <trkpt lat="43.34145" lon="6.5067">
        <ele>355</ele>
        <time>2025-11-03T13:18:25Z</time>
      </trkpt>
      <trkpt lat="43.34146" lon="6.50658">
        <ele>355</ele>
        <time>2025-11-03T13:21:44Z</time>
      </trkpt>
      <trkpt lat="43.34146" lon="6.50645">
        <ele>355</ele>
        <time>2025-11-03T13:21:54Z</time>
      </trkpt>
      <trkpt lat="43.34146" lon="6.50632">
        <ele>355</ele>
        <time>2025-11-03T13:22:07Z</time>
      </trkpt>
      <trkpt lat="43.34143" lon="6.5062">
        <ele>355</ele>
        <time>2025-11-03T13:22:18Z</time>
      </trkpt>
      <trkpt lat="43.34141" lon="6.50607">
        <ele>355</ele>
        <time>2025-11-03T13:22:31Z</time>
      </trkpt>
      <trkpt lat="43.34137" lon="6.50595">
        <ele>356</ele>
        <time>2025-11-03T13:22:43Z</time>
      </trkpt>
      <trkpt lat="43.34134" lon="6.50583">
        <ele>356</ele>
        <time>2025-11-03T13:22:55Z</time>
      </trkpt>
      <trkpt lat="43.34132" lon="6.5057">
        <ele>357</ele>
        <time>2025-11-03T13:23:06Z</time>
      </trkpt>
      <trkpt lat="43.34132" lon="6.50556">
        <ele>358</ele>
        <time>2025-11-03T13:23:16Z</time>
      </trkpt>
      <trkpt lat="43.3413" lon="6.50543">
        <ele>358</ele>
        <time>2025-11-03T13:23:26Z</time>
      </trkpt>
      <trkpt lat="43.3413" lon="6.5053">
        <ele>358</ele>
        <time>2025-11-03T13:23:36Z</time>
      </trkpt>
      <trkpt lat="43.34128" lon="6.50518">
        <ele>358</ele>
        <time>2025-11-03T13:23:46Z</time>
      </trkpt>
      <trkpt lat="43.34124" lon="6.50507">
        <ele>358</ele>
        <time>2025-11-03T13:23:57Z</time>
      </trkpt>
      <trkpt lat="43.34121" lon="6.50493">
        <ele>357</ele>
        <time>2025-11-03T13:24:06Z</time>
      </trkpt>
      <trkpt lat="43.34117" lon="6.50482">
        <ele>357</ele>
        <time>2025-11-03T13:24:16Z</time>
      </trkpt>
      <trkpt lat="43.34112" lon="6.50469">
        <ele>357</ele>
        <time>2025-11-03T13:24:26Z</time>
      </trkpt>
      <trkpt lat="43.34107" lon="6.50457">
        <ele>357</ele>
        <time>2025-11-03T13:24:33Z</time>
      </trkpt>
      <trkpt lat="43.34106" lon="6.50444">
        <ele>356</ele>
        <time>2025-11-03T13:24:43Z</time>
      </trkpt>
      <trkpt lat="43.34106" lon="6.50431">
        <ele>355</ele>
        <time>2025-11-03T13:24:52Z</time>
      </trkpt>
      <trkpt lat="43.34105" lon="6.50418">
        <ele>353</ele>
        <time>2025-11-03T13:25:01Z</time>
      </trkpt>
      <trkpt lat="43.34104" lon="6.50405">
        <ele>353</ele>
        <time>2025-11-03T13:25:09Z</time>
      </trkpt>
      <trkpt lat="43.34104" lon="6.50391">
        <ele>352</ele>
        <time>2025-11-03T13:25:17Z</time>
      </trkpt>
      <trkpt lat="43.34102" lon="6.50378">
        <ele>353</ele>
        <time>2025-11-03T13:25:25Z</time>
      </trkpt>
      <trkpt lat="43.34102" lon="6.50365">
        <ele>353</ele>
        <time>2025-11-03T13:25:34Z</time>
      </trkpt>
      <trkpt lat="43.34099" lon="6.50353">
        <ele>355</ele>
        <time>2025-11-03T13:25:41Z</time>
      </trkpt>
      <trkpt lat="43.341" lon="6.5034">
        <ele>356</ele>
        <time>2025-11-03T13:25:51Z</time>
      </trkpt>
      <trkpt lat="43.34103" lon="6.50328">
        <ele>357</ele>
        <time>2025-11-03T13:26:00Z</time>
      </trkpt>
      <trkpt lat="43.34107" lon="6.50316">
        <ele>357</ele>
        <time>2025-11-03T13:26:10Z</time>
      </trkpt>
      <trkpt lat="43.34116" lon="6.50312">
        <ele>356</ele>
        <time>2025-11-03T13:26:18Z</time>
      </trkpt>
      <trkpt lat="43.34126" lon="6.50311">
        <ele>353</ele>
        <time>2025-11-03T13:26:27Z</time>
      </trkpt>
      <trkpt lat="43.34135" lon="6.50308">
        <ele>351</ele>
        <time>2025-11-03T13:26:34Z</time>
      </trkpt>
      <trkpt lat="43.34144" lon="6.50306">
        <ele>349</ele>
        <time>2025-11-03T13:26:43Z</time>
      </trkpt>
      <trkpt lat="43.34154" lon="6.50303">
        <ele>348</ele>
        <time>2025-11-03T13:26:52Z</time>
      </trkpt>
      <trkpt lat="43.34162" lon="6.50297">
        <ele>348</ele>
        <time>2025-11-03T13:27:00Z</time>
      </trkpt>
      <trkpt lat="43.3417" lon="6.5029">
        <ele>348</ele>
        <time>2025-11-03T13:27:08Z</time>
      </trkpt>
      <trkpt lat="43.34177" lon="6.50282">
        <ele>348</ele>
        <time>2025-11-03T13:27:16Z</time>
      </trkpt>
      <trkpt lat="43.34182" lon="6.50271">
        <ele>349</ele>
        <time>2025-11-03T13:27:25Z</time>
      </trkpt>
      <trkpt lat="43.34187" lon="6.5026">
        <ele>349</ele>
        <time>2025-11-03T13:27:33Z</time>
      </trkpt>
      <trkpt lat="43.3419" lon="6.50247">
        <ele>350</ele>
        <time>2025-11-03T13:27:42Z</time>
      </trkpt>
      <trkpt lat="43.34191" lon="6.50234">
        <ele>350</ele>
        <time>2025-11-03T13:27:52Z</time>
      </trkpt>
      <trkpt lat="43.34193" lon="6.50221">
        <ele>350</ele>
        <time>2025-11-03T13:28:01Z</time>
      </trkpt>
      <trkpt lat="43.34197" lon="6.5021">
        <ele>349</ele>
        <time>2025-11-03T13:28:10Z</time>
      </trkpt>
      <trkpt lat="43.34199" lon="6.50197">
        <ele>349</ele>
        <time>2025-11-03T13:28:20Z</time>
      </trkpt>
      <trkpt lat="43.34198" lon="6.50183">
        <ele>350</ele>
        <time>2025-11-03T13:28:31Z</time>
      </trkpt>
      <trkpt lat="43.34195" lon="6.50171">
        <ele>352</ele>
        <time>2025-11-03T13:28:40Z</time>
      </trkpt>
      <trkpt lat="43.34195" lon="6.50157">
        <ele>353</ele>
        <time>2025-11-03T13:28:50Z</time>
      </trkpt>
      <trkpt lat="43.34194" lon="6.50144">
        <ele>354</ele>
        <time>2025-11-03T13:28:58Z</time>
      </trkpt>
      <trkpt lat="43.34194" lon="6.50131">
        <ele>355</ele>
        <time>2025-11-03T13:29:07Z</time>
      </trkpt>
      <trkpt lat="43.34193" lon="6.50119">
        <ele>357</ele>
        <time>2025-11-03T13:29:16Z</time>
      </trkpt>
      <trkpt lat="43.34194" lon="6.50105">
        <ele>358</ele>
        <time>2025-11-03T13:29:30Z</time>
      </trkpt>
      <trkpt lat="43.34199" lon="6.50092">
        <ele>359</ele>
        <time>2025-11-03T13:29:38Z</time>
      </trkpt>
      <trkpt lat="43.34205" lon="6.50083">
        <ele>359</ele>
        <time>2025-11-03T13:29:49Z</time>
      </trkpt>
      <trkpt lat="43.34215" lon="6.50081">
        <ele>355</ele>
        <time>2025-11-03T13:30:03Z</time>
      </trkpt>
      <trkpt lat="43.34224" lon="6.5008">
        <ele>352</ele>
        <time>2025-11-03T13:30:11Z</time>
      </trkpt>
      <trkpt lat="43.34234" lon="6.50078">
        <ele>349</ele>
        <time>2025-11-03T13:30:20Z</time>
      </trkpt>
      <trkpt lat="43.34242" lon="6.50073">
        <ele>347</ele>
        <time>2025-11-03T13:30:29Z</time>
      </trkpt>
      <trkpt lat="43.34249" lon="6.50065">
        <ele>347</ele>
        <time>2025-11-03T13:30:38Z</time>
      </trkpt>
      <trkpt lat="43.34256" lon="6.50056">
        <ele>347</ele>
        <time>2025-11-03T13:30:47Z</time>
      </trkpt>
      <trkpt lat="43.34263" lon="6.50047">
        <ele>347</ele>
        <time>2025-11-03T13:30:58Z</time>
      </trkpt>
      <trkpt lat="43.3427" lon="6.50037">
        <ele>348</ele>
        <time>2025-11-03T13:31:09Z</time>
      </trkpt>
      <trkpt lat="43.34279" lon="6.50034">
        <ele>346</ele>
        <time>2025-11-03T13:31:21Z</time>
      </trkpt>
      <trkpt lat="43.34288" lon="6.50028">
        <ele>344</ele>
        <time>2025-11-03T13:31:34Z</time>
      </trkpt>
      <trkpt lat="43.34295" lon="6.50021">
        <ele>342</ele>
        <time>2025-11-03T13:31:43Z</time>
      </trkpt>
      <trkpt lat="43.34302" lon="6.50011">
        <ele>341</ele>
        <time>2025-11-03T13:31:53Z</time>
      </trkpt>
      <trkpt lat="43.34308" lon="6.50001">
        <ele>340</ele>
        <time>2025-11-03T13:32:00Z</time>
      </trkpt>
      <trkpt lat="43.34311" lon="6.49989">
        <ele>341</ele>
        <time>2025-11-03T13:32:09Z</time>
      </trkpt>
      <trkpt lat="43.34311" lon="6.49976">
        <ele>342</ele>
        <time>2025-11-03T13:32:22Z</time>
      </trkpt>
      <trkpt lat="43.34309" lon="6.49963">
        <ele>343</ele>
        <time>2025-11-03T13:32:37Z</time>
      </trkpt>
      <trkpt lat="43.34307" lon="6.49951">
        <ele>344</ele>
        <time>2025-11-03T13:32:57Z</time>
      </trkpt>
      <trkpt lat="43.34303" lon="6.49939">
        <ele>345</ele>
        <time>2025-11-03T13:33:18Z</time>
      </trkpt>
      <trkpt lat="43.343" lon="6.49927">
        <ele>345</ele>
        <time>2025-11-03T13:33:26Z</time>
      </trkpt>
      <trkpt lat="43.34296" lon="6.49915">
        <ele>346</ele>
        <time>2025-11-03T13:33:36Z</time>
      </trkpt>
      <trkpt lat="43.34294" lon="6.49903">
        <ele>347</ele>
        <time>2025-11-03T13:33:44Z</time>
      </trkpt>
      <trkpt lat="43.3429" lon="6.49892">
        <ele>348</ele>
        <time>2025-11-03T13:33:52Z</time>
      </trkpt>
      <trkpt lat="43.34285" lon="6.49881">
        <ele>351</ele>
        <time>2025-11-03T13:34:01Z</time>
      </trkpt>
      <trkpt lat="43.34287" lon="6.49868">
        <ele>350</ele>
        <time>2025-11-03T13:34:13Z</time>
      </trkpt>
      <trkpt lat="43.34291" lon="6.49856">
        <ele>349</ele>
        <time>2025-11-03T13:34:22Z</time>
      </trkpt>
      <trkpt lat="43.34297" lon="6.49846">
        <ele>347</ele>
        <time>2025-11-03T13:34:31Z</time>
      </trkpt>
      <trkpt lat="43.34305" lon="6.49838">
        <ele>344</ele>
        <time>2025-11-03T13:34:38Z</time>
      </trkpt>
      <trkpt lat="43.3431" lon="6.49828">
        <ele>344</ele>
        <time>2025-11-03T13:34:47Z</time>
      </trkpt>
      <trkpt lat="43.34316" lon="6.49817">
        <ele>345</ele>
        <time>2025-11-03T13:35:00Z</time>
      </trkpt>
      <trkpt lat="43.34324" lon="6.4981">
        <ele>343</ele>
        <time>2025-11-03T13:35:09Z</time>
      </trkpt>
      <trkpt lat="43.34333" lon="6.49807">
        <ele>341</ele>
        <time>2025-11-03T13:35:19Z</time>
      </trkpt>
      <trkpt lat="43.34343" lon="6.49805">
        <ele>340</ele>
        <time>2025-11-03T13:35:29Z</time>
      </trkpt>
      <trkpt lat="43.34351" lon="6.498">
        <ele>339</ele>
        <time>2025-11-03T13:35:44Z</time>
      </trkpt>
      <trkpt lat="43.3436" lon="6.49795">
        <ele>339</ele>
        <time>2025-11-03T13:35:53Z</time>
      </trkpt>
      <trkpt lat="43.34369" lon="6.49791">
        <ele>338</ele>
        <time>2025-11-03T13:36:05Z</time>
      </trkpt>
      <trkpt lat="43.34378" lon="6.49787">
        <ele>338</ele>
        <time>2025-11-03T13:36:18Z</time>
      </trkpt>
      <trkpt lat="43.34387" lon="6.49783">
        <ele>338</ele>
        <time>2025-11-03T13:36:27Z</time>
      </trkpt>
      <trkpt lat="43.34396" lon="6.49778">
        <ele>338</ele>
        <time>2025-11-03T13:36:36Z</time>
      </trkpt>
      <trkpt lat="43.34405" lon="6.49771">
        <ele>338</ele>
        <time>2025-11-03T13:36:47Z</time>
      </trkpt>
      <trkpt lat="43.34413" lon="6.49763">
        <ele>339</ele>
        <time>2025-11-03T13:36:56Z</time>
      </trkpt>
      <trkpt lat="43.34419" lon="6.49754">
        <ele>339</ele>
        <time>2025-11-03T13:37:05Z</time>
      </trkpt>
      <trkpt lat="43.34418" lon="6.49741">
        <ele>341</ele>
        <time>2025-11-03T13:37:15Z</time>
      </trkpt>
      <trkpt lat="43.34415" lon="6.4973">
        <ele>343</ele>
        <time>2025-11-03T13:37:25Z</time>
      </trkpt>
      <trkpt lat="43.34412" lon="6.49717">
        <ele>344</ele>
        <time>2025-11-03T13:37:36Z</time>
      </trkpt>
      <trkpt lat="43.34411" lon="6.49704">
        <ele>344</ele>
        <time>2025-11-03T13:37:49Z</time>
      </trkpt>
      <trkpt lat="43.34408" lon="6.49691">
        <ele>345</ele>
        <time>2025-11-03T13:37:57Z</time>
      </trkpt>
      <trkpt lat="43.34406" lon="6.49678">
        <ele>345</ele>
        <time>2025-11-03T13:38:03Z</time>
      </trkpt>
      <trkpt lat="43.34404" lon="6.49665">
        <ele>344</ele>
        <time>2025-11-03T13:38:11Z</time>
      </trkpt>
      <trkpt lat="43.34402" lon="6.49652">
        <ele>343</ele>
        <time>2025-11-03T13:38:21Z</time>
      </trkpt>
      <trkpt lat="43.34396" lon="6.49641">
        <ele>343</ele>
        <time>2025-11-03T13:38:31Z</time>
      </trkpt>
      <trkpt lat="43.34391" lon="6.4963">
        <ele>342</ele>
        <time>2025-11-03T13:38:42Z</time>
      </trkpt>
      <trkpt lat="43.34386" lon="6.4962">
        <ele>341</ele>
        <time>2025-11-03T13:38:52Z</time>
      </trkpt>
      <trkpt lat="43.34378" lon="6.4961">
        <ele>341</ele>
        <time>2025-11-03T13:39:03Z</time>
      </trkpt>
      <trkpt lat="43.34371" lon="6.49602">
        <ele>340</ele>
        <time>2025-11-03T13:39:13Z</time>
      </trkpt>
      <trkpt lat="43.34363" lon="6.49593">
        <ele>339</ele>
        <time>2025-11-03T13:39:23Z</time>
      </trkpt>
      <trkpt lat="43.34356" lon="6.49584">
        <ele>339</ele>
        <time>2025-11-03T13:39:33Z</time>
      </trkpt>
      <trkpt lat="43.34351" lon="6.49573">
        <ele>338</ele>
        <time>2025-11-03T13:39:42Z</time>
      </trkpt>
      <trkpt lat="43.34346" lon="6.49562">
        <ele>337</ele>
        <time>2025-11-03T13:39:52Z</time>
      </trkpt>
      <trkpt lat="43.34342" lon="6.49549">
        <ele>336</ele>
        <time>2025-11-03T13:40:02Z</time>
      </trkpt>
      <trkpt lat="43.34338" lon="6.49537">
        <ele>336</ele>
        <time>2025-11-03T13:40:12Z</time>
      </trkpt>
      <trkpt lat="43.34331" lon="6.49527">
        <ele>337</ele>
        <time>2025-11-03T13:40:23Z</time>
      </trkpt>
      <trkpt lat="43.34325" lon="6.49518">
        <ele>338</ele>
        <time>2025-11-03T13:40:32Z</time>
      </trkpt>
      <trkpt lat="43.34319" lon="6.49508">
        <ele>339</ele>
        <time>2025-11-03T13:40:42Z</time>
      </trkpt>
      <trkpt lat="43.34312" lon="6.49499">
        <ele>340</ele>
        <time>2025-11-03T13:40:51Z</time>
      </trkpt>
      <trkpt lat="43.34307" lon="6.49489">
        <ele>341</ele>
        <time>2025-11-03T13:41:01Z</time>
      </trkpt>
      <trkpt lat="43.34302" lon="6.49478">
        <ele>340</ele>
        <time>2025-11-03T13:41:11Z</time>
      </trkpt>
      <trkpt lat="43.34297" lon="6.49468">
        <ele>339</ele>
        <time>2025-11-03T13:41:21Z</time>
      </trkpt>
      <trkpt lat="43.34293" lon="6.49456">
        <ele>338</ele>
        <time>2025-11-03T13:41:31Z</time>
      </trkpt>
      <trkpt lat="43.34289" lon="6.49444">
        <ele>337</ele>
        <time>2025-11-03T13:41:42Z</time>
      </trkpt>
      <trkpt lat="43.34285" lon="6.49432">
        <ele>338</ele>
        <time>2025-11-03T13:41:51Z</time>
      </trkpt>
      <trkpt lat="43.34282" lon="6.4942">
        <ele>337</ele>
        <time>2025-11-03T13:41:59Z</time>
      </trkpt>
      <trkpt lat="43.34278" lon="6.49409">
        <ele>337</ele>
        <time>2025-11-03T13:42:09Z</time>
      </trkpt>
      <trkpt lat="43.34272" lon="6.49399">
        <ele>337</ele>
        <time>2025-11-03T13:42:20Z</time>
      </trkpt>
      <trkpt lat="43.34269" lon="6.49386">
        <ele>335</ele>
        <time>2025-11-03T13:42:29Z</time>
      </trkpt>
      <trkpt lat="43.34264" lon="6.49376">
        <ele>335</ele>
        <time>2025-11-03T13:42:38Z</time>
      </trkpt>
      <trkpt lat="43.3426" lon="6.49364">
        <ele>333</ele>
        <time>2025-11-03T13:42:47Z</time>
      </trkpt>
      <trkpt lat="43.34254" lon="6.49354">
        <ele>332</ele>
        <time>2025-11-03T13:42:56Z</time>
      </trkpt>
      <trkpt lat="43.34248" lon="6.49343">
        <ele>331</ele>
        <time>2025-11-03T13:43:06Z</time>
      </trkpt>
      <trkpt lat="43.34241" lon="6.49336">
        <ele>330</ele>
        <time>2025-11-03T13:43:17Z</time>
      </trkpt>
      <trkpt lat="43.34234" lon="6.49326">
        <ele>329</ele>
        <time>2025-11-03T13:43:28Z</time>
      </trkpt>
      <trkpt lat="43.34229" lon="6.49316">
        <ele>328</ele>
        <time>2025-11-03T13:43:46Z</time>
      </trkpt>
      <trkpt lat="43.34224" lon="6.49305">
        <ele>326</ele>
        <time>2025-11-03T13:43:58Z</time>
      </trkpt>
      <trkpt lat="43.3422" lon="6.49293">
        <ele>325</ele>
        <time>2025-11-03T13:44:10Z</time>
      </trkpt>
      <trkpt lat="43.3422" lon="6.4928">
        <ele>323</ele>
        <time>2025-11-03T13:44:21Z</time>
      </trkpt>
      <trkpt lat="43.34223" lon="6.49268">
        <ele>323</ele>
        <time>2025-11-03T13:44:58Z</time>
      </trkpt>
      <trkpt lat="43.34216" lon="6.49276">
        <ele>323</ele>
        <time>2025-11-03T13:49:42Z</time>
      </trkpt>
      <trkpt lat="43.34222" lon="6.49266">
        <ele>323</ele>
        <time>2025-11-03T13:50:59Z</time>
      </trkpt>
      <trkpt lat="43.34222" lon="6.49253">
        <ele>323</ele>
        <time>2025-11-03T13:51:11Z</time>
      </trkpt>
      <trkpt lat="43.34222" lon="6.4924">
        <ele>323</ele>
        <time>2025-11-03T13:51:20Z</time>
      </trkpt>
      <trkpt lat="43.34224" lon="6.49228">
        <ele>324</ele>
        <time>2025-11-03T13:51:31Z</time>
      </trkpt>
      <trkpt lat="43.34229" lon="6.49216">
        <ele>325</ele>
        <time>2025-11-03T13:52:03Z</time>
      </trkpt>
      <trkpt lat="43.34232" lon="6.49204">
        <ele>327</ele>
        <time>2025-11-03T13:52:11Z</time>
      </trkpt>
      <trkpt lat="43.34236" lon="6.49192">
        <ele>328</ele>
        <time>2025-11-03T13:52:21Z</time>
      </trkpt>
      <trkpt lat="43.34236" lon="6.49179">
        <ele>329</ele>
        <time>2025-11-03T13:52:34Z</time>
      </trkpt>
      <trkpt lat="43.34238" lon="6.49166">
        <ele>331</ele>
        <time>2025-11-03T13:52:46Z</time>
      </trkpt>
      <trkpt lat="43.34244" lon="6.49156">
        <ele>331</ele>
        <time>2025-11-03T13:52:54Z</time>
      </trkpt>
      <trkpt lat="43.34254" lon="6.49152">
        <ele>332</ele>
        <time>2025-11-03T13:53:44Z</time>
      </trkpt>
      <trkpt lat="43.34263" lon="6.49149">
        <ele>332</ele>
        <time>2025-11-03T13:53:59Z</time>
      </trkpt>
      <trkpt lat="43.34273" lon="6.49147">
        <ele>333</ele>
        <time>2025-11-03T13:54:30Z</time>
      </trkpt>
      <trkpt lat="43.34281" lon="6.49142">
        <ele>334</ele>
        <time>2025-11-03T13:54:42Z</time>
      </trkpt>
      <trkpt lat="43.3429" lon="6.49139">
        <ele>334</ele>
        <time>2025-11-03T13:55:04Z</time>
      </trkpt>
      <trkpt lat="43.34299" lon="6.49137">
        <ele>334</ele>
        <time>2025-11-03T13:55:14Z</time>
      </trkpt>
      <trkpt lat="43.34308" lon="6.49136">
        <ele>334</ele>
        <time>2025-11-03T13:55:24Z</time>
      </trkpt>
      <trkpt lat="43.34318" lon="6.49132">
        <ele>334</ele>
        <time>2025-11-03T13:55:35Z</time>
      </trkpt>
      <trkpt lat="43.34327" lon="6.49133">
        <ele>334</ele>
        <time>2025-11-03T13:55:47Z</time>
      </trkpt>
      <trkpt lat="43.34335" lon="6.49128">
        <ele>334</ele>
        <time>2025-11-03T13:55:56Z</time>
      </trkpt>
      <trkpt lat="43.34344" lon="6.49128">
        <ele>335</ele>
        <time>2025-11-03T13:56:06Z</time>
      </trkpt>
      <trkpt lat="43.34352" lon="6.49121">
        <ele>336</ele>
        <time>2025-11-03T13:56:30Z</time>
      </trkpt>
      <trkpt lat="43.34343" lon="6.49117">
        <ele>335</ele>
        <time>2025-11-03T14:01:47Z</time>
      </trkpt>
      <trkpt lat="43.34352" lon="6.49116">
        <ele>336</ele>
        <time>2025-11-03T14:02:50Z</time>
      </trkpt>
      <trkpt lat="43.34361" lon="6.49118">
        <ele>336</ele>
        <time>2025-11-03T14:14:39Z</time>
      </trkpt>
      <trkpt lat="43.34355" lon="6.49118">
        <ele>336</ele>
        <time>2025-11-03T14:15:59Z</time>
      </trkpt>
    </trkseg>
  </trk>
</gpx>